M I D A S
Marine Information and Data Acquisition System
Tripno 863 of the Zeeleeuw from 2005-03-15 07:17:54 to 2005-03-15 12:53:38
Back to CruiseResearch ActivitiesStationsMapUnderway DataData graphs

EquipmentUnitsComment
TimeDGPSUTC
LatitudeDGPSDM.mWGS84
LongitudeDGPSDM.mWGS84
TemperatureSBE03/SBE38deg celciusITS90
ConductivitySBE21S/mITS90
SalinitySBE21 Practical Salinity Units
ChlorophylAChelsea fluorimeterg/lCalibrated in Aceton
Missing or incorrect values are displayed as -999
Sea surface data collected by the RV Zeeleeuw from 2005-03-15 07:14:11 to 2005-03-15 13:03:22
                                                                                    Next 1000 lines
Time Latitude Longitude Temperature Conductivity Salinity ChlorophylA
2005-03-15 07:14:20 51°13.597 2°56.093 13.4774 3.803554 26.27324 -0.814958
2005-03-15 07:14:26 51°13.598 2°56.089 13.4578 3.803554 26.27324 -0.814958
2005-03-15 07:14:31 51°13.599 2°56.084 13.489 3.803554 26.271545 -0.814958
2005-03-15 07:14:36 51°13.601 2°56.079 13.4812 3.803449 26.271161 -0.814958
2005-03-15 07:14:42 51°13.603 2°56.073 13.4229 3.803449 26.268197 -0.814958
2005-03-15 07:14:47 51°13.605 2°56.067 13.4511 3.803449 26.269044 -0.848668
2005-03-15 07:14:51 51°13.607 2°56.062 13.455 3.803449 26.272432 -0.848668
2005-03-15 07:14:56 51°13.609 2°56.055 13.4956 3.803449 26.272432 -0.848668
2005-03-15 07:15:02 51°13.611 2°56.048 13.4817 3.803449 26.272855 -0.814958
2005-03-15 07:15:07 51°13.614 2°56.041 13.463 3.803343 26.2712 -0.848668
2005-03-15 07:15:12 51°13.616 2°56.033 13.4701 3.803449 26.275397 -0.848668
2005-03-15 07:15:16 51°13.619 2°56.027 13.4858 3.803343 26.2712 -0.848668
2005-03-15 07:15:22 51°13.622 2°56.017 13.506 3.803238 26.270816 -0.814958
2005-03-15 07:15:27 51°13.625 2°56.009 13.5035 3.803238 26.270816 -0.814958
2005-03-15 07:15:31 51°13.627 2°56.001 13.4941 3.803343 26.271624 -0.848668
2005-03-15 07:15:36 51°13.63 2°55.992 13.4755 3.803238 26.271239 -0.848668
2005-03-15 07:15:41 51°13.633 2°55.984 13.4906 3.803238 26.271663 -0.848668
2005-03-15 07:15:47 51°13.636 2°55.973 13.4977 3.803238 26.272086 -0.848668
2005-03-15 07:15:52 51°13.639 2°55.964 13.5184 3.803133 26.270855 -0.814958
2005-03-15 07:15:56 51°13.641 2°55.956 13.5257 3.803133 26.270855 -0.814958
2005-03-15 07:16:01 51°13.644 2°55.946 13.5269 3.803133 26.271702 -0.814958
2005-03-15 07:16:07 51°13.647 2°55.936 13.5248 3.803133 26.271702 -0.848668
2005-03-15 07:16:12 51°13.65 2°55.926 13.5338 3.803133 26.272549 -0.814958
2005-03-15 07:16:16 51°13.653 2°55.917 13.5439 3.803133 26.272126 -0.781249
2005-03-15 07:16:21 51°13.655 2°55.907 13.5561 3.803133 26.272973 -0.814958
2005-03-15 07:16:27 51°13.658 2°55.896 13.5758 3.803133 26.272973 -0.814958
2005-03-15 07:16:30 51°13.66 2°55.889 13.585 3.803027 26.271741 -0.814958
2005-03-15 07:16:36 51°13.662 2°55.877 13.6312 3.802922 26.27051 -0.814958
2005-03-15 07:16:42 51°13.665 2°55.867 13.6223 3.803027 26.271741 -0.848668
2005-03-15 07:16:46 51°13.666 2°55.86 13.6179 3.802922 26.270933 -0.814958
2005-03-15 07:16:51 51°13.668 2°55.852 13.5869 3.803027 26.271741 -0.848668
2005-03-15 07:16:56 51°13.669 2°55.844 13.5626 3.803027 26.271741 -0.848668
2005-03-15 07:17:01 51°13.669 2°55.844 13.5454 3.802922 26.270933 -0.814958
2005-03-15 07:17:06 51°13.671 2°55.826 13.5672 3.802922 26.272204 -0.814958
2005-03-15 07:17:11 51°13.672 2°55.819 13.5536 3.802816 26.271396 -0.814958
2005-03-15 07:17:16 51°13.673 2°55.811 13.5785 3.802816 26.270549 -0.814958
2005-03-15 07:17:22 51°13.673 2°55.801 13.5819 3.802816 26.270549 -0.814958
2005-03-15 07:17:26 51°13.674 2°55.795 13.5891 3.802816 26.270549 -0.814958
2005-03-15 07:17:30 51°13.674 2°55.79 13.5935 3.802711 26.269741 -0.848668
2005-03-15 07:17:36 51°13.674 2°55.784 13.6745 3.802711 26.270588 -0.814958
2005-03-15 07:17:40 51°13.674 2°55.781 13.6928 3.802711 26.270165 -0.848668
2005-03-15 07:17:46 51°13.675 2°55.779 13.6974 3.802711 26.270165 -0.814958
2005-03-15 07:17:51 51°13.676 2°55.779 13.7045 3.802711 26.271012 -0.814958
2005-03-15 07:17:56 51°13.677 2°55.78 13.7211 3.802711 26.271012 -0.814958
2005-03-15 07:18:01 51°13.678 2°55.782 13.7182 3.802711 26.271012 -0.848668
2005-03-15 07:18:07 51°13.68 2°55.785 13.7634 3.802606 26.270627 -0.848668
2005-03-15 07:18:11 51°13.683 2°55.788 13.7737 3.802711 26.271859 -0.814958
2005-03-15 07:18:16 51°13.686 2°55.791 13.7823 3.802606 26.271898 -0.848668
2005-03-15 07:18:21 51°13.69 2°55.793 13.7556 3.802606 26.272322 -0.848668
2005-03-15 07:18:26 51°13.694 2°55.795 13.7846 3.802606 26.272322 -0.848668
2005-03-15 07:18:31 51°13.7 2°55.797 13.8051 3.802606 26.273169 -0.848668
2005-03-15 07:18:36 51°13.705 2°55.797 13.8398 3.80229 26.270322 -0.882377
2005-03-15 07:18:41 51°13.712 2°55.795 13.8621 3.801446 26.264281 -0.882377
2005-03-15 07:18:46 51°13.719 2°55.792 13.8621 3.801341 26.265591 -0.848668
2005-03-15 07:18:51 51°13.726 2°55.785 13.8621 3.80113 26.264398 -0.848668
2005-03-15 07:18:56 51°13.732 2°55.778 13.8621 3.80113 26.264398 -0.848668
2005-03-15 07:19:00 51°13.736 2°55.77 13.8621 3.798917 26.246158 -0.848668
2005-03-15 07:19:06 51°13.742 2°55.76 13.8621 3.799339 26.248967 -0.680121
2005-03-15 07:19:11 51°13.747 2°55.75 -999 3.762979 25.930692 -0.680121
2005-03-15 07:19:16 51°13.752 2°55.74 -999 3.66972 25.249581 0.364871
2005-03-15 07:19:21 51°13.759 2°55.727 -999 3.151608 22.119136 3.095332
2005-03-15 07:19:26 51°13.764 2°55.717 -999 3.151608 22.119136 3.095332
2005-03-15 07:19:31 51°13.771 2°55.704 -999 3.380809 26.643413 2.791947
2005-03-15 07:19:36 51°13.78 2°55.69 -999 3.336826 29.125502 2.859366
2005-03-15 07:19:41 51°13.785 2°55.682 -999 2.931169 26.646777 3.80323
2005-03-15 07:19:46 51°13.796 2°55.668 -999 2.745658 25.89695 4.511127
2005-03-15 07:19:51 51°13.806 2°55.658 -999 2.633417 25.502457 4.174033
2005-03-15 07:19:56 51°13.817 2°55.648 -999 2.633417 25.502457 4.174033
2005-03-15 07:20:01 51°13.829 2°55.637 -999 2.548016 25.016677 3.904358
2005-03-15 07:20:06 51°13.84 2°55.628 -999 2.508161 24.836993 3.76952
2005-03-15 07:20:10 51°13.849 2°55.62 -999 2.465679 24.478076 3.533554
2005-03-15 07:20:16 51°13.862 2°55.61 -999 2.442337 24.316102 3.499845
2005-03-15 07:20:21 51°13.874 2°55.601 -999 2.427934 24.299726 3.466136
2005-03-15 07:20:26 51°13.887 2°55.591 -999 2.427934 24.299726 3.466136
2005-03-15 07:20:30 51°13.897 2°55.583 -999 2.406171 24.157872 3.365007
2005-03-15 07:20:36 51°13.912 2°55.572 -999 2.414478 24.314177 3.432426
2005-03-15 07:20:40 51°13.922 2°55.565 -999 2.414584 24.380564 3.365007
2005-03-15 07:20:46 51°13.936 2°55.554 -999 2.405122 24.320611 3.432426
2005-03-15 07:20:51 51°13.95 2°55.544 -999 2.422786 24.565727 3.466136
2005-03-15 07:20:56 51°13.963 2°55.535 -999 2.422786 24.565727 3.466136
2005-03-15 07:21:01 51°13.975 2°55.526 -999 2.453068 24.938915 3.466136
2005-03-15 07:21:06 51°13.988 2°55.517 -999 2.452121 24.947501 3.398717
2005-03-15 07:21:11 51°14 2°55.508 -999 2.487348 25.390076 3.466136
2005-03-15 07:21:16 51°14.012 2°55.498 -999 2.444447 24.939778 3.466136
2005-03-15 07:21:20 51°14.023 2°55.491 -999 2.500178 25.582719 3.634683
2005-03-15 07:21:26 51°14.039 2°55.478 -999 2.500178 25.582719 3.634683
2005-03-15 07:21:31 51°14.052 2°55.469 -999 2.526468 25.902307 3.702101
2005-03-15 07:21:36 51°14.063 2°55.461 -999 2.54624 26.140994 3.735811
2005-03-15 07:21:42 51°14.079 2°55.45 -999 2.560859 26.330437 3.938067
2005-03-15 07:21:46 51°14.089 2°55.442 -999 2.564646 26.372502 3.971777
2005-03-15 07:21:50 51°14.1 2°55.434 -999 2.57348 26.485035 4.039195
2005-03-15 07:21:56 51°14.115 2°55.422 -999 2.57348 26.485035 4.039195
2005-03-15 07:22:01 51°14.129 2°55.411 -999 2.578424 26.545892 4.106614
2005-03-15 07:22:06 51°14.141 2°55.401 -999 2.572849 26.484257 4.140324
2005-03-15 07:22:11 51°14.154 2°55.391 -999 2.569274 26.458643 4.140324
2005-03-15 07:22:16 51°14.167 2°55.379 -999 2.537196 26.099513 4.005486
2005-03-15 07:22:20 51°14.179 2°55.368 -999 2.550343 26.257885 4.039195
2005-03-15 07:22:26 51°14.192 2°55.353 -999 2.550343 26.257885 4.039195
2005-03-15 07:22:31 51°14.206 2°55.338 -999 2.565382 26.43085 3.971777
2005-03-15 07:22:36 51°14.216 2°55.325 -999 2.541088 26.154648 3.870648
2005-03-15 07:22:40 51°14.226 2°55.313 -999 2.554234 26.313843 3.76952
2005-03-15 07:22:46 51°14.24 2°55.292 -999 2.523525 25.983282 3.668392
2005-03-15 07:22:50 51°14.249 2°55.278 -999 2.518477 25.928995 3.600973
2005-03-15 07:22:55 51°14.259 2°55.261 -999 2.518477 25.928995 3.600973
2005-03-15 07:23:00 51°14.27 2°55.243 -999 2.53625 26.144668 3.432426
2005-03-15 07:23:06 51°14.282 2°55.222 -999 2.536461 26.156149 3.365007
2005-03-15 07:23:11 51°14.292 2°55.203 -999 2.51343 25.903119 3.331298
2005-03-15 07:23:16 51°14.302 2°55.186 -999 2.5169 25.949336 3.23017
2005-03-15 07:23:21 51°14.313 2°55.164 -999 2.517636 25.965319 3.23017
2005-03-15 07:23:26 51°14.323 2°55.145 -999 2.517636 25.965319 3.23017
2005-03-15 07:23:30 51°14.331 2°55.129 -999 2.508908 25.865815 2.893076
2005-03-15 07:23:36 51°14.345 2°55.105 -999 2.519319 25.985069 3.129042
2005-03-15 07:23:41 51°14.355 2°55.086 -999 2.528679 26.09808 3.129042
2005-03-15 07:23:46 51°14.365 2°55.069 -999 2.534042 26.166587 3.129042
2005-03-15 07:23:51 51°14.377 2°55.047 -999 2.528153 26.104015 3.162751
2005-03-15 07:23:56 51°14.387 2°55.03 -999 2.528153 26.104015 3.162751
2005-03-15 07:24:00 51°14.397 2°55.014 -999 2.541509 26.261835 3.23017
2005-03-15 07:24:06 51°14.411 2°54.99 -999 2.561807 26.496568 3.23017
2005-03-15 07:24:11 51°14.425 2°54.969 -999 2.546663 26.328799 3.297589
2005-03-15 07:24:16 51°14.437 2°54.951 -999 2.566646 26.554393 3.331298
2005-03-15 07:24:21 51°14.452 2°54.931 -999 2.549607 26.35941 3.331298
2005-03-15 07:24:26 51°14.466 2°54.913 -999 2.549607 26.35941 3.331298
2005-03-15 07:24:31 51°14.478 2°54.896 -999 2.530362 26.144481 3.263879
2005-03-15 07:24:36 51°14.493 2°54.879 -999 2.528679 26.123989 3.331298
2005-03-15 07:24:41 51°14.508 2°54.859 -999 2.566961 26.562256 3.331298
2005-03-15 07:24:46 51°14.523 2°54.843 -999 2.582317 26.741195 3.365007
2005-03-15 07:24:51 51°14.538 2°54.826 -999 2.58968 26.830028 3.398717
2005-03-15 07:24:56 51°14.551 2°54.811 -999 2.58968 26.830028 3.398717
2005-03-15 07:25:00 51°14.563 2°54.798 -999 2.586104 26.80659 3.365007
2005-03-15 07:25:06 51°14.583 2°54.777 -999 2.616502 27.172084 3.297589
2005-03-15 07:25:10 51°14.596 2°54.766 -999 2.625338 27.290587 3.297589
2005-03-15 07:25:16 51°14.614 2°54.754 -999 2.628073 27.3395 3.263879
2005-03-15 07:25:21 51°14.633 2°54.745 -999 2.634174 27.429972 3.19646
2005-03-15 07:25:26 51°14.649 2°54.741 -999 2.634174 27.429972 3.19646
2005-03-15 07:25:31 51°14.666 2°54.737 -999 2.668888 27.839044 3.129042
2005-03-15 07:25:36 51°14.685 2°54.736 -999 2.656054 27.702283 3.095332
2005-03-15 07:25:40 51°14.699 2°54.735 -999 2.679408 27.964312 3.027913
2005-03-15 07:25:46 51°14.718 2°54.735 -999 2.666995 27.807572 3.027913
2005-03-15 07:25:50 51°14.732 2°54.737 -999 2.691611 28.078738 3.027913
2005-03-15 07:25:56 51°14.756 2°54.74 -999 2.691611 28.078738 3.027913
2005-03-15 07:26:01 51°14.773 2°54.744 -999 2.684352 27.987888 2.926785
2005-03-15 07:26:06 51°14.788 2°54.748 -999 2.71665 28.373223 2.926785
2005-03-15 07:26:10 51°14.802 2°54.753 -999 2.726119 28.49516 2.893076
2005-03-15 07:26:16 51°14.819 2°54.759 -999 2.711916 28.344007 2.926785
2005-03-15 07:26:20 51°14.831 2°54.766 -999 2.735063 28.618924 2.859366
2005-03-15 07:26:26 51°14.846 2°54.776 -999 2.735063 28.618924 2.859366
2005-03-15 07:26:30 51°14.854 2°54.782 -999 2.726014 28.525482 2.825657
2005-03-15 07:26:36 51°14.865 2°54.791 -999 2.739271 28.68754 2.825657
2005-03-15 07:26:42 51°14.876 2°54.8 -999 2.697819 28.207756 2.893076
2005-03-15 07:26:46 51°14.883 2°54.807 -999 2.743059 28.728894 2.893076
2005-03-15 07:26:51 51°14.891 2°54.813 -999 2.730013 28.576171 2.859366
2005-03-15 07:26:56 51°14.898 2°54.819 -999 2.730013 28.576171 2.859366
2005-03-15 07:27:01 51°14.905 2°54.824 -999 2.726751 28.545524 2.926785
2005-03-15 07:27:06 51°14.912 2°54.83 -999 2.74085 28.726684 2.791947
2005-03-15 07:27:11 51°14.919 2°54.835 -999 2.745269 28.790136 2.825657
2005-03-15 07:27:16 51°14.925 2°54.839 -999 2.745374 28.80459 2.825657
2005-03-15 07:27:21 51°14.931 2°54.844 -999 2.738641 28.732246 2.859366
2005-03-15 07:27:26 51°14.937 2°54.848 -999 2.738641 28.732246 2.859366
2005-03-15 07:27:31 51°14.942 2°54.851 -999 2.748005 28.843565 2.859366
2005-03-15 07:27:36 51°14.948 2°54.855 -999 2.747479 28.844509 2.825657
2005-03-15 07:27:41 51°14.954 2°54.858 -999 2.73317 28.683798 2.791947
2005-03-15 07:27:46 51°14.959 2°54.861 -999 2.74548 28.82608 2.791947
2005-03-15 07:27:51 51°14.964 2°54.864 -999 2.741902 28.7894 2.758238
2005-03-15 07:27:56 51°14.968 2°54.866 -999 2.741902 28.7894 2.758238
2005-03-15 07:28:01 51°14.974 2°54.868 -999 2.750214 28.887866 2.724529
2005-03-15 07:28:06 51°14.978 2°54.87 -999 2.737378 28.743325 2.791947
2005-03-15 07:28:10 51°14.982 2°54.872 -999 2.74811 28.867434 2.758238
2005-03-15 07:28:16 51°14.987 2°54.874 -999 2.744743 28.830833 2.758238
2005-03-15 07:28:20 51°14.99 2°54.875 -999 2.740535 28.783718 2.724529
2005-03-15 07:28:26 51°14.995 2°54.876 -999 2.740535 28.783718 2.724529
2005-03-15 07:28:30 51°14.999 2°54.878 -999 2.748636 28.882906 2.65711
2005-03-15 07:28:36 51°15.003 2°54.879 -999 2.740324 28.785962 2.758238
2005-03-15 07:28:41 51°15.008 2°54.88 -999 2.741797 28.803 2.758238
2005-03-15 07:28:46 51°15.011 2°54.88 -999 2.732749 28.70069 2.6234
2005-03-15 07:28:51 51°15.015 2°54.881 -999 2.745269 28.847856 2.65711
2005-03-15 07:28:56 51°15.019 2°54.881 -999 2.745269 28.847856 2.65711
2005-03-15 07:29:01 51°15.023 2°54.881 -999 2.746322 28.863941 2.6234
2005-03-15 07:29:06 51°15.026 2°54.882 -999 2.745059 28.849329 2.65711
2005-03-15 07:29:10 51°15.03 2°54.882 -999 2.743796 28.834718 2.724529
2005-03-15 07:29:15 51°15.033 2°54.882 -999 2.741903 28.814365 2.65711
2005-03-15 07:29:21 51°15.037 2°54.881 -999 2.741587 28.811493 2.65711
2005-03-15 07:29:26 51°15.041 2°54.881 -999 2.741587 28.811493 2.65711
2005-03-15 07:29:31 51°15.044 2°54.881 -999 2.739378 28.786707 2.589691
2005-03-15 07:29:36 51°15.047 2°54.88 -999 2.743691 28.838971 2.6234
2005-03-15 07:29:41 51°15.051 2°54.88 -999 2.746111 28.869329 2.6234
2005-03-15 07:29:46 51°15.055 2°54.879 -999 2.743481 28.841226 2.522272
2005-03-15 07:29:50 51°15.059 2°54.878 -999 2.746848 28.880204 2.555982
2005-03-15 07:29:56 51°15.064 2°54.876 -999 2.746848 28.880204 2.555982
2005-03-15 07:30:00 51°15.067 2°54.874 -999 2.740219 28.802691 2.555982
2005-03-15 07:30:06 51°15.072 2°54.872 -999 2.742639 28.831482 2.522272
2005-03-15 07:30:10 51°15.076 2°54.869 -999 2.745901 28.870806 2.522272
2005-03-15 07:30:16 51°15.081 2°54.866 -999 2.742008 28.827301 2.522272
2005-03-15 07:30:21 51°15.086 2°54.863 -999 2.744218 28.855227 2.522272
2005-03-15 07:30:26 51°15.091 2°54.86 -999 2.744218 28.855227 2.522272
2005-03-15 07:30:30 51°15.095 2°54.857 -999 2.744954 28.864538 2.555982
2005-03-15 07:30:36 51°15.102 2°54.853 -999 2.746006 28.877505 2.555982
2005-03-15 07:30:40 51°15.108 2°54.848 -999 2.737905 28.785267 2.522272
2005-03-15 07:30:46 51°15.117 2°54.843 -999 2.744428 28.860794 2.522272
2005-03-15 07:30:50 51°15.123 2°54.838 -999 2.750636 28.932691 2.488563
2005-03-15 07:30:56 51°15.134 2°54.831 -999 2.750636 28.932691 2.488563
2005-03-15 07:31:01 51°15.144 2°54.824 -999 2.748216 28.905444 2.522272
2005-03-15 07:31:06 51°15.154 2°54.818 -999 2.751688 28.945664 2.522272
2005-03-15 07:31:11 51°15.167 2°54.81 -999 2.744428 28.861577 2.555982
2005-03-15 07:31:16 51°15.179 2°54.803 -999 2.750636 28.936614 2.488563
2005-03-15 07:31:21 51°15.194 2°54.794 -999 2.740535 28.818844 2.555982
2005-03-15 07:31:26 51°15.206 2°54.787 -999 2.740535 28.818844 2.555982
2005-03-15 07:31:31 51°15.22 2°54.778 -999 2.749163 28.917981 2.555982
2005-03-15 07:31:36 51°15.237 2°54.769 -999 2.750846 28.934344 2.522272
2005-03-15 07:31:40 51°15.249 2°54.762 -999 2.745901 28.877852 2.589691
2005-03-15 07:31:46 51°15.267 2°54.751 -999 2.732328 28.722281 2.589691
2005-03-15 07:31:51 51°15.282 2°54.742 -999 2.749478 28.924775 2.6234
2005-03-15 07:31:56 51°15.296 2°54.734 -999 2.749478 28.924775 2.6234
2005-03-15 07:32:00 51°15.309 2°54.727 -999 2.738431 28.798385 2.522272
2005-03-15 07:32:06 51°15.328 2°54.716 -999 2.750425 28.937316 2.6234
2005-03-15 07:32:11 51°15.345 2°54.707 -999 2.752319 28.960831 2.6234
2005-03-15 07:32:15 51°15.36 2°54.698 -999 2.73801 28.796636 2.6234
2005-03-15 07:32:20 51°15.375 2°54.689 -999 2.749058 28.925391 2.724529
2005-03-15 07:32:26 51°15.397 2°54.675 -999 2.749058 28.925391 2.724529
2005-03-15 07:32:30 51°15.41 2°54.666 -999 2.705816 28.423345 2.690819
2005-03-15 07:32:36 51°15.428 2°54.651 -999 2.743797 28.864442 2.65711
2005-03-15 07:32:41 51°15.444 2°54.636 -999 2.746006 28.889255 2.758238
2005-03-15 07:32:46 51°15.46 2°54.621 -999 2.751162 28.94899 2.690819
2005-03-15 07:32:50 51°15.472 2°54.607 -999 2.752845 28.970071 2.758238
2005-03-15 07:32:56 51°15.491 2°54.587 -999 2.752845 28.970071 2.758238
2005-03-15 07:33:01 51°15.507 2°54.567 -999 2.75011 28.943079 2.724529
2005-03-15 07:33:06 51°15.521 2°54.551 -999 2.745059 28.889257 2.690819
2005-03-15 07:33:11 51°15.536 2°54.531 -999 2.747164 28.915214 2.758238
2005-03-15 07:33:16 51°15.552 2°54.51 -999 2.747479 28.918873 2.724529
2005-03-15 07:33:21 51°15.566 2°54.49 -999 2.749268 28.939606 2.65711
2005-03-15 07:33:26 51°15.579 2°54.473 -999 2.749268 28.939606 2.65711
2005-03-15 07:33:31 51°15.596 2°54.451 -999 2.742745 28.86635 2.65711
2005-03-15 07:33:36 51°15.609 2°54.434 -999 2.73296 28.75298 2.589691
2005-03-15 07:33:40 51°15.623 2°54.416 -999 2.740325 28.838307 2.724529
2005-03-15 07:33:46 51°15.639 2°54.396 -999 2.740114 28.833521 2.690819
2005-03-15 07:33:51 51°15.656 2°54.375 -999 2.746006 28.900231 2.65711
2005-03-15 07:33:56 51°15.669 2°54.357 -999 2.746006 28.900231 2.65711
2005-03-15 07:34:01 51°15.686 2°54.336 -999 2.74548 28.892566 2.690819
2005-03-15 07:34:06 51°15.7 2°54.316 -999 2.75011 28.948578 2.65711
2005-03-15 07:34:11 51°15.716 2°54.297 -999 2.742324 28.855207 2.791947
2005-03-15 07:34:16 51°15.729 2°54.28 -999 2.75758 29.034404 2.690819
2005-03-15 07:34:19 51°15.74 2°54.266 -999 2.763157 29.09908 2.724529
2005-03-15 07:34:26 51°15.761 2°54.239 -999 2.763157 29.09908 2.724529
2005-03-15 07:34:31 51°15.776 2°54.219 -999 2.766945 29.144604 2.690819
2005-03-15 07:34:36 51°15.79 2°54.202 -999 2.761579 29.08472 2.791947
2005-03-15 07:34:40 51°15.804 2°54.184 -999 2.767681 29.158689 2.724529
2005-03-15 07:34:46 51°15.822 2°54.162 -999 2.772521 29.221211 2.724529
2005-03-15 07:34:51 51°15.835 2°54.144 -999 2.765472 29.142542 2.522272
2005-03-15 07:34:56 51°15.852 2°54.122 -999 2.765472 29.142542 2.522272
2005-03-15 07:35:00 51°15.862 2°54.108 -999 2.771154 29.213263 2.387435
2005-03-15 07:35:06 51°15.88 2°54.084 -999 2.771259 29.220834 2.421144
2005-03-15 07:35:11 51°15.895 2°54.065 -999 2.761263 29.107132 2.353725
2005-03-15 07:35:16 51°15.91 2°54.045 -999 2.772101 29.236966 2.353725
2005-03-15 07:35:21 51°15.926 2°54.024 -999 2.771575 29.234826 2.286306
2005-03-15 07:35:26 51°15.941 2°54.005 -999 2.771575 29.234826 2.286306
2005-03-15 07:35:30 51°15.953 2°53.989 -999 2.768839 29.208597 2.218888
2005-03-15 07:35:35 51°15.968 2°53.97 -999 2.765367 29.169046 2.117759
2005-03-15 07:35:40 51°15.983 2°53.95 -999 2.742745 28.90951 2.185178
2005-03-15 07:35:46 51°16.002 2°53.929 -999 2.752741 29.02713 2.185178
2005-03-15 07:35:50 51°16.014 2°53.915 -999 2.763052 29.146907 2.08405
2005-03-15 07:35:56 51°16.032 2°53.896 -999 2.763052 29.146907 2.08405
2005-03-15 07:36:00 51°16.044 2°53.882 -999 2.763157 29.147337 2.050341
2005-03-15 07:36:06 51°16.063 2°53.861 -999 2.759369 29.102539 2.151469
2005-03-15 07:36:10 51°16.077 2°53.846 -999 2.756844 29.067676 2.151469
2005-03-15 07:36:16 51°16.095 2°53.827 -999 2.763578 29.145095 2.185178
2005-03-15 07:36:20 51°16.107 2°53.813 -999 2.760316 29.109583 2.286306
2005-03-15 07:36:26 51°16.127 2°53.793 -999 2.760316 29.109583 2.286306
2005-03-15 07:36:30 51°16.141 2°53.778 -999 2.757475 29.075797 2.353725
2005-03-15 07:36:36 51°16.159 2°53.759 -999 2.759475 29.096642 2.353725
2005-03-15 07:36:40 51°16.173 2°53.744 -999 2.751373 29.000208 2.387435
2005-03-15 07:36:46 51°16.192 2°53.724 -999 2.756528 29.061641 2.421144
2005-03-15 07:36:51 51°16.208 2°53.707 -999 2.762841 29.132581 2.387435
2005-03-15 07:36:56 51°16.223 2°53.692 -999 2.762841 29.132581 2.387435
2005-03-15 07:37:01 51°16.24 2°53.673 -999 2.758948 29.088161 2.454853
2005-03-15 07:37:06 51°16.254 2°53.657 -999 2.755897 29.051942 2.454853
2005-03-15 07:37:11 51°16.272 2°53.638 -999 2.760211 29.101241 2.454853
2005-03-15 07:37:15 51°16.284 2°53.624 -999 2.751373 28.997056 2.421144
2005-03-15 07:37:21 51°16.304 2°53.604 -999 2.753477 29.020692 2.454853
2005-03-15 07:37:26 51°16.32 2°53.588 -999 2.753477 29.020692 2.454853
2005-03-15 07:37:31 51°16.334 2°53.573 -999 2.753793 29.027511 2.488563
2005-03-15 07:37:36 51°16.35 2°53.556 -999 2.757475 29.068686 2.488563
2005-03-15 07:37:41 51°16.368 2°53.537 -999 2.758948 29.083419 2.555982
2005-03-15 07:37:46 51°16.384 2°53.521 -999 2.761579 29.11317 2.589691
2005-03-15 07:37:51 51°16.4 2°53.504 -999 2.744849 28.91664 2.555982
2005-03-15 07:37:56 51°16.415 2°53.49 -999 2.744849 28.91664 2.555982
2005-03-15 07:38:01 51°16.433 2°53.472 -999 2.739799 28.856492 2.65711
2005-03-15 07:38:06 51°16.449 2°53.455 -999 2.759054 29.081479 2.690819
2005-03-15 07:38:10 51°16.462 2°53.442 -999 2.760527 29.099371 2.825657
2005-03-15 07:38:16 51°16.479 2°53.423 -999 2.760421 29.09894 2.65711
2005-03-15 07:38:21 51°16.496 2°53.406 -999 2.76221 29.121292 2.65711
2005-03-15 07:38:26 51°16.511 2°53.39 -999 2.76221 29.121292 2.65711
2005-03-15 07:38:30 51°16.526 2°53.375 -999 2.760001 29.098007 2.690819
2005-03-15 07:38:36 51°16.544 2°53.356 -999 2.753688 29.02629 2.589691
2005-03-15 07:38:39 51°16.555 2°53.344 -999 2.763262 29.139053 2.522272
2005-03-15 07:38:46 51°16.577 2°53.319 -999 2.759264 29.09578 2.555982
2005-03-15 07:38:51 51°16.591 2°53.304 -999 2.765051 29.165378 2.555982
2005-03-15 07:38:56 51°16.607 2°53.286 -999 2.765051 29.165378 2.555982
2005-03-15 07:39:00 51°16.621 2°53.271 -999 2.754424 29.044312 2.522272
2005-03-15 07:39:06 51°16.639 2°53.252 -999 2.763578 29.150642 2.488563
2005-03-15 07:39:11 51°16.656 2°53.234 -999 2.764525 29.161644 2.488563
2005-03-15 07:39:16 51°16.671 2°53.218 -999 2.765472 29.1782 2.421144
2005-03-15 07:39:21 51°16.688 2°53.199 -999 2.767156 29.200148 2.421144
2005-03-15 07:39:26 51°16.704 2°53.183 -999 2.767156 29.200148 2.421144
2005-03-15 07:39:30 51°16.717 2°53.169 -999 2.763999 29.162667 2.454853
2005-03-15 07:39:36 51°16.737 2°53.149 -999 2.771259 29.243875 2.454853
2005-03-15 07:39:41 51°16.752 2°53.132 -999 2.768418 29.214031 2.387435
2005-03-15 07:39:46 51°16.767 2°53.117 -999 2.773679 29.274397 2.387435
2005-03-15 07:39:51 51°16.783 2°53.1 -999 2.767261 29.200577 2.320016
2005-03-15 07:39:56 51°16.801 2°53.082 -999 2.767261 29.200577 2.320016
2005-03-15 07:40:01 51°16.817 2°53.066 -999 2.770523 29.236903 2.353725
2005-03-15 07:40:06 51°16.833 2°53.049 -999 2.775784 29.298866 2.387435
2005-03-15 07:40:10 51°16.845 2°53.036 -999 2.772206 29.25727 2.320016
2005-03-15 07:40:16 51°16.862 2°53.018 -999 2.770628 29.236537 2.320016
2005-03-15 07:40:21 51°16.879 2°53 -999 2.774521 29.281795 2.320016
2005-03-15 07:40:26 51°16.893 2°52.986 -999 2.774521 29.281795 2.320016
2005-03-15 07:40:31 51°16.909 2°52.968 -999 2.775573 29.294826 2.252597
2005-03-15 07:40:36 51°16.923 2°52.953 -999 2.773995 29.276475 2.320016
2005-03-15 07:40:41 51°16.94 2°52.935 -999 2.7741 29.27929 2.252597
2005-03-15 07:40:46 51°16.955 2°52.919 -999 2.780519 29.354729 2.218888
2005-03-15 07:40:52 51°16.972 2°52.901 -999 2.777678 29.320093 2.218888
2005-03-15 07:40:56 51°16.985 2°52.887 -999 2.777678 29.320093 2.218888
2005-03-15 07:41:00 51°16.997 2°52.874 -999 2.777572 29.319667 2.218888
2005-03-15 07:41:06 51°17.017 2°52.854 -999 2.776415 29.30541 2.117759
2005-03-15 07:41:11 51°17.034 2°52.835 -999 2.785885 29.413954 2.151469
2005-03-15 07:41:16 51°17.049 2°52.82 -999 2.781887 29.368244 2.117759
2005-03-15 07:41:21 51°17.065 2°52.803 -999 2.785569 29.415081 2.016631
2005-03-15 07:41:26 51°17.081 2°52.786 -999 2.785569 29.415081 2.016631
2005-03-15 07:41:30 51°17.096 2°52.771 -999 2.784412 29.401615 2.117759
2005-03-15 07:41:36 51°17.116 2°52.751 -999 2.784517 29.403639 2.016631
2005-03-15 07:41:40 51°17.127 2°52.74 -999 2.763052 29.153248 2.050341
2005-03-15 07:41:46 51°17.149 2°52.719 -999 2.786201 29.422427 2.050341
2005-03-15 07:41:51 51°17.165 2°52.702 -999 2.789463 29.461985 2.016631
2005-03-15 07:41:56 51°17.181 2°52.686 -999 2.789463 29.461985 2.016631
2005-03-15 07:42:01 51°17.197 2°52.669 -999 2.791567 29.48728 1.949212
2005-03-15 07:42:06 51°17.213 2°52.653 -999 2.789147 29.462318 1.915503
2005-03-15 07:42:11 51°17.229 2°52.637 -999 2.789884 29.473296 1.982922
2005-03-15 07:42:16 51°17.244 2°52.622 -999 2.784833 29.416112 1.949212
2005-03-15 07:42:21 51°17.262 2°52.603 -999 2.793882 29.520649 1.881794
2005-03-15 07:42:26 51°17.278 2°52.586 -999 2.793882 29.520649 1.881794
2005-03-15 07:42:31 51°17.294 2°52.569 -999 2.791041 29.488375 1.814375
2005-03-15 07:42:36 51°17.308 2°52.554 -999 2.786096 29.431608 1.881794
2005-03-15 07:42:40 51°17.321 2°52.539 -999 2.79525 29.538183 1.881794
2005-03-15 07:42:46 51°17.342 2°52.517 -999 2.795145 29.536958 1.814375
2005-03-15 07:42:50 51°17.354 2°52.503 -999 2.772838 29.277348 1.915503
2005-03-15 07:42:56 51°17.375 2°52.483 -999 2.772838 29.277348 1.915503
2005-03-15 07:43:00 51°17.388 2°52.471 -999 2.798196 29.574908 1.814375
2005-03-15 07:43:06 51°17.406 2°52.456 -999 2.79504 29.539751 1.746956
2005-03-15 07:43:10 51°17.422 2°52.443 -999 2.798617 29.57981 1.848084
2005-03-15 07:43:15 51°17.439 2°52.43 -999 2.79746 29.565524 1.848084
2005-03-15 07:43:20 51°17.455 2°52.419 -999 2.79988 29.593713 1.814375
2005-03-15 07:43:26 51°17.476 2°52.403 -999 2.79988 29.593713 1.814375
2005-03-15 07:43:30 51°17.492 2°52.392 -999 2.8023 29.619487 1.848084
2005-03-15 07:43:36 51°17.513 2°52.376 -999 2.806615 29.668939 1.848084
2005-03-15 07:43:40 51°17.527 2°52.365 -999 2.809245 29.698782 1.848084
2005-03-15 07:43:46 51°17.548 2°52.35 -999 2.80672 29.666936 1.881794
2005-03-15 07:43:51 51°17.563 2°52.337 -999 2.807772 29.675966 1.915503
2005-03-15 07:43:56 51°17.582 2°52.322 -999 2.807772 29.675966 1.915503
2005-03-15 07:44:00 51°17.594 2°52.313 -999 2.81356 29.743392 1.881794
2005-03-15 07:44:06 51°17.616 2°52.295 -999 2.800617 29.590216 1.949212
2005-03-15 07:44:11 51°17.632 2°52.283 -999 2.815664 29.763059 1.949212
2005-03-15 07:44:16 51°17.651 2°52.268 -999 2.815664 29.76144 2.050341
2005-03-15 07:44:21 51°17.666 2°52.257 -999 2.813665 29.738956 1.982922
2005-03-15 07:44:26 51°17.686 2°52.245 -999 2.813665 29.738956 1.982922
2005-03-15 07:44:31 51°17.702 2°52.236 -999 2.814612 29.74918 2.050341
2005-03-15 07:44:36 51°17.72 2°52.227 -999 2.816506 29.770438 1.982922
2005-03-15 07:44:40 51°17.737 2°52.219 -999 2.813454 29.734079 1.949212
2005-03-15 07:44:46 51°17.759 2°52.209 -999 2.806825 29.655255 2.016631
2005-03-15 07:44:50 51°17.773 2°52.203 -999 2.810824 29.701013 2.016631
2005-03-15 07:44:55 51°17.792 2°52.195 -999 2.810824 29.701013 2.016631
2005-03-15 07:45:02 51°17.815 2°52.185 -999 2.810297 29.691657 2.050341
2005-03-15 07:45:06 51°17.832 2°52.178 -999 2.815875 29.754991 2.117759
2005-03-15 07:45:10 51°17.847 2°52.171 -999 2.816085 29.755016 2.117759
2005-03-15 07:45:16 51°17.867 2°52.164 -999 2.812612 29.713769 2.185178
2005-03-15 07:45:21 51°17.886 2°52.157 -999 2.800406 29.573288 2.218888
2005-03-15 07:45:26 51°17.906 2°52.152 -999 2.800406 29.573288 2.218888
2005-03-15 07:45:30 51°17.921 2°52.147 -999 2.812402 29.713742 2.151469
2005-03-15 07:45:35 51°17.94 2°52.143 -999 2.803352 29.608384 2.08405
2005-03-15 07:45:41 51°17.962 2°52.137 -999 2.811771 29.705582 2.151469
2005-03-15 07:45:46 51°17.979 2°52.133 -999 2.811771 29.704774 2.08405
2005-03-15 07:45:51 51°18 2°52.128 -999 2.80693 29.647613 2.050341
2005-03-15 07:45:56 51°18.019 2°52.124 -999 2.80693 29.647613 2.050341
2005-03-15 07:46:01 51°18.037 2°52.122 -999 2.809456 29.677013 2.117759
2005-03-15 07:46:06 51°18.054 2°52.123 -999 2.8023 29.592114 2.08405
2005-03-15 07:46:10 51°18.071 2°52.124 -999 2.801984 29.588441 2.117759
2005-03-15 07:46:16 51°18.091 2°52.129 -999 2.786516 29.409304 2.151469
2005-03-15 07:46:21 51°18.112 2°52.134 -999 2.793987 29.496998 2.286306
2005-03-15 07:46:26 51°18.128 2°52.14 -999 2.793987 29.496998 2.286306
2005-03-15 07:46:30 51°18.145 2°52.145 -999 2.803458 29.60639 2.218888
2005-03-15 07:46:36 51°18.165 2°52.152 -999 2.79988 29.558328 2.252597
2005-03-15 07:46:40 51°18.18 2°52.157 -999 2.805772 29.625282 2.286306
2005-03-15 07:46:46 51°18.204 2°52.165 -999 2.803037 29.593448 2.353725
2005-03-15 07:46:51 51°18.222 2°52.172 -999 2.797565 29.533002 2.252597
2005-03-15 07:46:56 51°18.238 2°52.179 -999 2.797565 29.533002 2.252597
2005-03-15 07:47:00 51°18.252 2°52.186 -999 2.805983 29.633367 2.320016
2005-03-15 07:47:06 51°18.275 2°52.2 -999 2.804825 29.620701 2.286306
2005-03-15 07:47:10 51°18.289 2°52.208 -999 2.793251 29.490032 2.286306
2005-03-15 07:47:15 51°18.306 2°52.22 -999 2.80472 29.625112 2.353725
2005-03-15 07:47:20 51°18.322 2°52.23 -999 2.801774 29.590817 2.353725
2005-03-15 07:47:26 51°18.344 2°52.246 -999 2.801774 29.590817 2.353725
2005-03-15 07:47:30 51°18.357 2°52.257 -999 2.803352 29.606774 2.320016
2005-03-15 07:47:36 51°18.375 2°52.273 -999 2.805246 29.62721 2.353725
2005-03-15 07:47:40 51°18.388 2°52.286 -999 2.805246 29.62721 2.353725
2005-03-15 07:47:46 51°18.407 2°52.305 -999 2.802195 29.593303 2.421144
2005-03-15 07:47:51 51°18.424 2°52.324 -999 2.803878 29.612093 2.387435
2005-03-15 07:47:56 51°18.437 2°52.339 -999 2.803878 29.612093 2.387435
2005-03-15 07:48:01 51°18.454 2°52.358 -999 2.803668 29.608034 2.387435
2005-03-15 07:48:06 51°18.468 2°52.373 -999 2.803142 29.599498 2.387435
2005-03-15 07:48:11 51°18.485 2°52.392 -999 2.804299 29.612163 2.353725
2005-03-15 07:48:16 51°18.498 2°52.408 -999 2.803457 29.602367 2.353725
2005-03-15 07:48:21 51°18.513 2°52.425 -999 2.807035 29.645615 2.286306
2005-03-15 07:48:26 51°18.529 2°52.442 -999 2.807035 29.645615 2.286306
2005-03-15 07:48:30 51°18.541 2°52.455 -999 2.807351 29.653319 2.320016
2005-03-15 07:48:36 51°18.561 2°52.477 -999 2.79767 29.540649 2.353725
2005-03-15 07:48:41 51°18.575 2°52.492 -999 2.80251 29.596977 2.252597
2005-03-15 07:48:46 51°18.592 2°52.51 -999 2.80009 29.571222 2.286306
2005-03-15 07:48:51 51°18.606 2°52.525 -999 2.806404 29.645518 2.286306
2005-03-15 07:48:56 51°18.622 2°52.542 -999 2.806404 29.645518 2.286306
2005-03-15 07:49:01 51°18.639 2°52.56 -999 2.803458 29.611219 2.286306
2005-03-15 07:49:06 51°18.653 2°52.575 -999 2.80672 29.647581 2.320016
2005-03-15 07:49:11 51°18.669 2°52.592 -999 2.808298 29.665957 2.353725
2005-03-15 07:49:16 51°18.684 2°52.608 -999 2.805246 29.628821 2.387435
2005-03-15 07:49:22 51°18.702 2°52.63 -999 2.806088 29.637814 2.353725
2005-03-15 07:49:26 51°18.715 2°52.647 -999 2.806088 29.637814 2.353725
2005-03-15 07:49:31 51°18.728 2°52.664 -999 2.804825 29.622311 2.387435
2005-03-15 07:49:36 51°18.742 2°52.683 -999 2.806404 29.640683 2.387435
2005-03-15 07:49:40 51°18.753 2°52.699 -999 2.806614 29.64555 2.286306
2005-03-15 07:49:46 51°18.771 2°52.724 -999 2.800301 29.57528 2.252597
2005-03-15 07:49:51 51°18.785 2°52.744 -999 2.799985 29.571605 2.218888
2005-03-15 07:49:56 51°18.797 2°52.762 -999 2.799985 29.571605 2.218888
2005-03-15 07:50:01 51°18.813 2°52.784 -999 2.804194 29.623014 2.218888
2005-03-15 07:50:06 51°18.827 2°52.803 -999 2.803878 29.616923 2.252597
2005-03-15 07:50:11 51°18.84 2°52.823 -999 2.804826 29.628754 2.218888
2005-03-15 07:50:16 51°18.853 2°52.84 -999 2.800827 29.585425 2.252597
2005-03-15 07:50:20 51°18.864 2°52.856 -999 2.803668 29.620916 2.151469
2005-03-15 07:50:26 51°18.88 2°52.88 -999 2.803668 29.620916 2.151469
2005-03-15 07:50:31 51°18.895 2°52.902 -999 2.800616 29.583779 2.185178
2005-03-15 07:50:36 51°18.908 2°52.919 -999 2.796828 29.543703 2.252597
2005-03-15 07:50:40 51°18.918 2°52.935 -999 2.798407 29.56288 2.252597
2005-03-15 07:50:46 51°18.936 2°52.96 -999 2.800196 29.583706 2.286306
2005-03-15 07:50:51 51°18.95 2°52.979 -999 2.803037 29.616786 2.185178
2005-03-15 07:50:56 51°18.963 2°52.996 -999 2.803037 29.616786 2.185178
2005-03-15 07:51:01 51°18.978 2°53.018 -999 2.800196 29.583706 2.252597
2005-03-15 07:51:06 51°18.992 2°53.037 -999 2.802511 29.61066 2.286306
2005-03-15 07:51:11 51°19.004 2°53.054 -999 2.800722 29.590636 2.353725
2005-03-15 07:51:16 51°19.018 2°53.073 -999 2.802616 29.614301 2.353725
2005-03-15 07:51:21 51°19.033 2°53.094 -999 2.802826 29.614336 2.387435
2005-03-15 07:51:26 51°19.045 2°53.111 -999 2.802826 29.614336 2.387435
2005-03-15 07:51:30 51°19.056 2°53.127 -999 2.801353 29.597182 2.387435
2005-03-15 07:51:36 51°19.074 2°53.152 -999 2.80209 29.605759 2.421144
2005-03-15 07:51:41 51°19.088 2°53.17 -999 2.79504 29.52529 2.421144
2005-03-15 07:51:46 51°19.101 2°53.189 -999 2.797144 29.550592 2.387435
2005-03-15 07:51:51 51°19.115 2°53.208 -999 2.794829 29.523643 2.421144
2005-03-15 07:51:56 51°19.127 2°53.226 -999 2.794829 29.523643 2.421144
2005-03-15 07:52:01 51°19.142 2°53.247 -999 2.794724 29.521615 2.387435
2005-03-15 07:52:06 51°19.156 2°53.266 -999 2.800827 29.590252 2.353725
2005-03-15 07:52:11 51°19.17 2°53.285 -999 2.796828 29.548524 2.387435
2005-03-15 07:52:16 51°19.182 2°53.302 -999 2.799249 29.575093 2.320016
2005-03-15 07:52:21 51°19.196 2°53.322 -999 2.794093 29.514267 2.353725
2005-03-15 07:52:26 51°19.211 2°53.342 -999 2.794093 29.514267 2.353725
2005-03-15 07:52:31 51°19.224 2°53.361 -999 2.79283 29.498767 2.286306
2005-03-15 07:52:36 51°19.236 2°53.379 -999 2.7882 29.448092 2.320016
2005-03-15 07:52:41 51°19.252 2°53.4 -999 2.797144 29.550592 2.421144
2005-03-15 07:52:46 51°19.264 2°53.417 -999 2.794619 29.522799 2.387435
2005-03-15 07:52:51 51°19.28 2°53.437 -999 2.790725 29.477482 2.421144
2005-03-15 07:52:56 51°19.292 2°53.454 -999 2.790725 29.477482 2.421144
2005-03-15 07:53:00 51°19.305 2°53.471 -999 2.784307 29.401191 2.454853
2005-03-15 07:53:06 51°19.32 2°53.491 -999 2.789463 29.459582 2.454853
2005-03-15 07:53:11 51°19.335 2°53.511 -999 2.795671 29.532639 2.387435
2005-03-15 07:53:16 51°19.348 2°53.528 -999 2.793777 29.508987 2.421144
2005-03-15 07:53:20 51°19.36 2°53.545 -999 2.79041 29.466595 2.454853
2005-03-15 07:53:26 51°19.375 2°53.565 -999 2.79041 29.466595 2.454853
2005-03-15 07:53:31 51°19.39 2°53.586 -999 2.792093 29.485384 2.421144
2005-03-15 07:53:36 51°19.403 2°53.603 -999 2.79283 29.492351 2.421144
2005-03-15 07:53:40 51°19.414 2°53.618 -999 2.790515 29.467018 2.454853
2005-03-15 07:53:46 51°19.432 2°53.642 -999 2.789463 29.453174 2.421144
2005-03-15 07:53:50 51°19.443 2°53.657 -999 2.787989 29.436036 2.454853
2005-03-15 07:53:55 51°19.457 2°53.676 -999 2.787989 29.436036 2.454853
2005-03-15 07:54:01 51°19.473 2°53.698 -999 2.787463 29.429915 2.488563
2005-03-15 07:54:06 51°19.487 2°53.717 -999 2.789778 29.456846 2.555982
2005-03-15 07:54:10 51°19.498 2°53.732 -999 2.787674 29.431563 2.522272
2005-03-15 07:54:16 51°19.514 2°53.753 -999 2.787042 29.424219 2.555982
2005-03-15 07:54:21 51°19.529 2°53.773 -999 2.790094 29.458116 2.488563
2005-03-15 07:54:26 51°19.543 2°53.792 -999 2.790094 29.458116 2.488563
2005-03-15 07:54:31 51°19.555 2°53.809 -999 2.789463 29.449971 2.454853
2005-03-15 07:54:36 51°19.569 2°53.828 -999 2.787989 29.433635 2.488563
2005-03-15 07:54:41 51°19.584 2°53.85 -999 2.788726 29.442203 2.589691
2005-03-15 07:54:46 51°19.597 2°53.869 -999 2.789463 29.449971 2.522272
2005-03-15 07:54:50 51°19.608 2°53.885 -999 2.784096 29.386754 2.555982
2005-03-15 07:54:56 51°19.624 2°53.909 -999 2.784096 29.386754 2.555982
2005-03-15 07:55:00 51°19.634 2°53.922 -999 2.786937 29.421395 2.488563
2005-03-15 07:55:06 51°19.651 2°53.948 -999 2.783465 29.380211 2.488563
2005-03-15 07:55:11 51°19.664 2°53.967 -999 2.786411 29.414476 2.488563
2005-03-15 07:55:16 51°19.676 2°53.985 -999 2.784833 29.39532 2.488563
2005-03-15 07:55:20 51°19.687 2°54 -999 2.785359 29.401439 2.522272
2005-03-15 07:55:26 51°19.703 2°54.024 -999 2.785359 29.401439 2.522272
2005-03-15 07:55:30 51°19.715 2°54.041 -999 2.783886 29.382709 2.522272
2005-03-15 07:55:36 51°19.73 2°54.063 -999 2.779677 29.332973 2.454853
2005-03-15 07:55:40 51°19.742 2°54.08 -999 2.781045 29.348079 2.488563
2005-03-15 07:55:46 51°19.757 2°54.101 -999 2.783044 29.371324 2.454853
2005-03-15 07:55:51 51°19.771 2°54.122 -999 2.781676 29.353026 2.454853
2005-03-15 07:55:56 51°19.785 2°54.142 -999 2.781676 29.353026 2.454853
2005-03-15 07:56:01 51°19.799 2°54.16 -999 2.783675 29.370681 2.454853
2005-03-15 07:56:06 51°19.812 2°54.18 -999 2.779361 29.316553 2.522272
2005-03-15 07:56:12 51°19.827 2°54.201 -999 2.780834 29.330485 2.488563
2005-03-15 07:56:16 51°19.84 2°54.218 -999 2.780729 29.325279 2.522272
2005-03-15 07:56:21 51°19.854 2°54.237 -999 2.780413 29.318426 2.555982
2005-03-15 07:56:26 51°19.867 2°54.256 -999 2.780413 29.318426 2.555982
2005-03-15 07:56:31 51°19.879 2°54.273 -999 2.77673 29.273262 2.522272
2005-03-15 07:56:36 51°19.893 2°54.293 -999 2.779045 29.300148 2.522272
2005-03-15 07:56:41 51°19.906 2°54.312 -999 2.776941 29.274911 2.488563
2005-03-15 07:56:46 51°19.921 2°54.333 -999 2.778098 29.288354 2.522272
2005-03-15 07:56:51 51°19.933 2°54.351 -999 2.777467 29.281816 2.488563
2005-03-15 07:56:56 51°19.947 2°54.37 -999 2.777467 29.281816 2.488563
2005-03-15 07:57:01 51°19.96 2°54.39 -999 2.77673 29.272467 2.488563
2005-03-15 07:57:06 51°19.974 2°54.408 -999 2.77873 29.295686 2.454853
2005-03-15 07:57:11 51°19.988 2°54.43 -999 2.778519 29.294833 2.387435
2005-03-15 07:57:16 51°20.001 2°54.448 -999 2.775047 29.256888 2.353725
2005-03-15 07:57:21 51°20.015 2°54.469 -999 2.776941 29.279682 2.421144
2005-03-15 07:57:26 51°20.029 2°54.488 -999 2.776941 29.279682 2.421144
2005-03-15 07:57:31 51°20.041 2°54.506 -999 2.775257 29.260922 2.353725
2005-03-15 07:57:36 51°20.055 2°54.525 -999 2.770733 29.209169 2.387435
2005-03-15 07:57:41 51°20.07 2°54.546 -999 2.77652 29.274793 2.421144
2005-03-15 07:57:46 51°20.082 2°54.563 -999 2.777783 29.28946 2.387435
2005-03-15 07:57:51 51°20.096 2°54.582 -999 2.776625 29.277605 2.454853
2005-03-15 07:57:56 51°20.109 2°54.602 -999 2.776625 29.277605 2.454853
2005-03-15 07:58:00 51°20.12 2°54.617 -999 2.7741 29.247479 2.421144
2005-03-15 07:58:06 51°20.138 2°54.642 -999 2.77673 29.276442 2.421144
2005-03-15 07:58:11 51°20.151 2°54.662 -999 2.777362 29.285366 2.353725
2005-03-15 07:58:16 51°20.165 2°54.682 -999 2.775468 29.264161 2.421144
2005-03-15 07:58:21 51°20.178 2°54.7 -999 2.776941 29.278091 2.353725
2005-03-15 07:58:26 51°20.192 2°54.72 -999 2.776941 29.278091 2.353725
2005-03-15 07:58:31 51°20.206 2°54.739 -999 2.775573 29.25982 2.353725
2005-03-15 07:58:36 51°20.22 2°54.759 -999 2.777467 29.281021 2.353725
2005-03-15 07:58:41 51°20.232 2°54.775 -999 2.776941 29.274911 2.320016
2005-03-15 07:58:46 51°20.245 2°54.795 -999 2.776625 29.27045 2.320016
2005-03-15 07:58:51 51°20.259 2°54.814 -999 2.777046 29.273748 2.320016
2005-03-15 07:58:56 51°20.272 2°54.834 -999 2.777046 29.273748 2.320016
2005-03-15 07:59:00 51°20.283 2°54.85 -999 2.777256 29.277782 2.387435
2005-03-15 07:59:06 51°20.299 2°54.873 -999 2.777046 29.274543 2.353725
2005-03-15 07:59:11 51°20.314 2°54.895 -999 2.777151 29.27815 2.353725
2005-03-15 07:59:16 51°20.326 2°54.912 -999 2.776309 29.265989 2.353725
2005-03-15 07:59:20 51°20.337 2°54.928 -999 2.773153 29.230923 2.286306
2005-03-15 07:59:26 51°20.353 2°54.951 -999 2.773153 29.230923 2.286306
2005-03-15 07:59:31 51°20.369 2°54.973 -999 2.776415 29.268801 2.353725
2005-03-15 07:59:36 51°20.381 2°54.991 -999 2.776415 29.268801 2.320016
2005-03-15 07:59:41 51°20.396 2°55.012 -999 2.777572 29.280653 2.286306
2005-03-15 07:59:46 51°20.408 2°55.03 -999 2.776941 29.273321 2.320016
2005-03-15 07:59:51 51°20.423 2°55.052 -999 2.777362 29.279004 2.320016
2005-03-15 07:59:56 51°20.435 2°55.069 -999 2.777362 29.279004 2.320016
2005-03-15 08:00:01 51°20.449 2°55.089 -999 2.771574 29.211803 2.320016
2005-03-15 08:00:06 51°20.463 2°55.108 -999 2.776835 29.271304 2.320016
2005-03-15 08:00:10 51°20.475 2°55.126 -999 2.768418 29.174365 2.286306
2005-03-15 08:00:16 51°20.49 2°55.148 -999 2.777256 29.276192 2.320016
2005-03-15 08:00:21 51°20.505 2°55.169 -999 2.772942 29.226892 2.286306
2005-03-15 08:00:26 51°20.519 2°55.189 -999 2.772942 29.226892 2.286306
2005-03-15 08:00:30 51°20.53 2°55.205 -999 2.775152 29.254138 2.421144
2005-03-15 08:00:36 51°20.545 2°55.226 -999 2.771259 29.206552 2.353725
2005-03-15 08:00:41 51°20.559 2°55.245 -999 2.777467 29.277046 2.286306
2005-03-15 08:00:46 51°20.574 2°55.267 -999 2.769786 29.187866 2.286306
2005-03-15 08:00:51 51°20.588 2°55.286 -999 2.770522 29.197209 2.286306
2005-03-15 08:00:56 51°20.602 2°55.306 -999 2.770522 29.197209 2.286306
2005-03-15 08:01:01 51°20.614 2°55.323 -999 2.777993 29.28236 2.252597
2005-03-15 08:01:06 51°20.628 2°55.343 -999 2.776941 29.270142 2.252597
2005-03-15 08:01:11 51°20.642 2°55.362 -999 2.77673 29.268493 2.286306
2005-03-15 08:01:16 51°20.656 2°55.381 -999 2.776204 29.263973 2.252597
2005-03-15 08:01:20 51°20.667 2°55.397 -999 2.775468 29.257009 2.218888
2005-03-15 08:01:26 51°20.683 2°55.421 -999 2.775468 29.257009 2.218888
2005-03-15 08:01:31 51°20.698 2°55.442 -999 2.777888 29.286705 2.218888
2005-03-15 08:01:36 51°20.71 2°55.46 -999 2.777362 29.279004 2.218888
2005-03-15 08:01:40 51°20.721 2°55.476 -999 2.774205 29.242347 2.320016
2005-03-15 08:01:46 51°20.737 2°55.5 -999 2.778414 29.291224 2.286306
2005-03-15 08:01:51 51°20.752 2°55.521 -999 2.778098 29.287558 2.218888
2005-03-15 08:01:56 51°20.764 2°55.539 -999 2.778098 29.287558 2.218888
2005-03-15 08:02:01 51°20.78 2°55.56 -999 2.77431 29.244363 2.218888
2005-03-15 08:02:06 51°20.792 2°55.578 -999 2.775468 29.259392 2.286306
2005-03-15 08:02:11 51°20.807 2°55.599 -999 2.77873 29.297277 2.252597
2005-03-15 08:02:16 51°20.819 2°55.617 -999 2.776836 29.275279 2.185178
2005-03-15 08:02:21 51°20.833 2°55.636 -999 2.776625 29.272835 2.252597
2005-03-15 08:02:26 51°20.847 2°55.656 -999 2.776625 29.272835 2.252597
2005-03-15 08:02:30 51°20.859 2°55.674 -999 2.777888 29.2875 2.320016
2005-03-15 08:02:36 51°20.874 2°55.695 -999 2.777993 29.287131 2.218888
2005-03-15 08:02:41 51°20.889 2°55.717 -999 2.778519 29.292447 2.252597
2005-03-15 08:02:46 51°20.903 2°55.737 -999 2.778519 29.294037 2.185178
2005-03-15 08:02:50 51°20.914 2°55.753 -999 2.777993 29.287131 2.252597
2005-03-15 08:02:56 51°20.929 2°55.774 -999 2.777993 29.287131 2.252597
2005-03-15 08:03:01 51°20.942 2°55.794 -999 2.774205 29.243935 2.286306
2005-03-15 08:03:06 51°20.957 2°55.816 -999 2.775573 29.262204 2.252597
2005-03-15 08:03:11 51°20.971 2°55.836 -999 2.778309 29.293184 2.252597
2005-03-15 08:03:16 51°20.985 2°55.857 -999 2.776625 29.27363 2.218888
2005-03-15 08:03:21 51°20.997 2°55.874 -999 2.77915 29.302962 2.185178
2005-03-15 08:03:26 51°21.012 2°55.896 -999 2.77915 29.302962 2.185178
2005-03-15 08:03:30 51°21.023 2°55.912 -999 2.77915 29.302166 2.185178
2005-03-15 08:03:36 51°21.038 2°55.933 -999 2.779256 29.305776 2.185178
2005-03-15 08:03:40 51°21.049 2°55.949 -999 2.777993 29.290313 2.218888
2005-03-15 08:03:46 51°21.067 2°55.974 -999 2.779571 29.309443 2.185178
2005-03-15 08:03:50 51°21.078 2°55.99 -999 2.777783 29.28946 2.218888
2005-03-15 08:03:56 51°21.093 2°56.012 -999 2.777783 29.28946 2.218888
2005-03-15 08:04:01 51°21.107 2°56.031 -999 2.769575 29.192557 2.185178
2005-03-15 08:04:06 51°21.122 2°56.052 -999 2.776204 29.266357 2.218888
2005-03-15 08:04:10 51°21.133 2°56.067 -999 2.776941 29.268552 2.320016
2005-03-15 08:04:16 51°21.147 2°56.09 -999 2.776099 29.254807 2.286306
2005-03-15 08:04:20 51°21.158 2°56.105 -999 2.771469 29.197104 2.320016
2005-03-15 08:04:26 51°21.174 2°56.13 -999 2.771469 29.197104 2.320016
2005-03-15 08:04:30 51°21.186 2°56.148 -999 2.775678 29.241983 2.320016
2005-03-15 08:04:35 51°21.199 2°56.168 -999 2.770943 29.183078 2.320016
2005-03-15 08:04:41 51°21.215 2°56.192 -999 2.77431 29.218972 2.353725
2005-03-15 08:04:46 51°21.228 2°56.209 -999 2.773573 29.207257 2.353725
2005-03-15 08:04:51 51°21.241 2°56.23 -999 2.772521 29.191884 2.421144
2005-03-15 08:04:56 51°21.255 2°56.249 -999 2.772521 29.191884 2.421144
2005-03-15 08:05:02 51°21.27 2°56.273 -999 2.771364 29.179251 2.320016
2005-03-15 08:05:06 51°21.283 2°56.291 -999 2.770627 29.170709 2.320016
2005-03-15 08:05:10 51°21.294 2°56.307 -999 2.772837 29.197921 2.353725
2005-03-15 08:05:16 51°21.309 2°56.329 -999 2.770627 29.174666 2.320016
2005-03-15 08:05:21 51°21.322 2°56.349 -999 2.772206 29.194558 2.320016
2005-03-15 08:05:26 51°21.337 2°56.371 -999 2.772206 29.194558 2.320016
2005-03-15 08:05:30 51°21.348 2°56.387 -999 2.772837 29.200298 2.320016
2005-03-15 08:05:36 51°21.363 2°56.409 -999 2.771995 29.191325 2.252597
2005-03-15 08:05:40 51°21.373 2°56.425 -999 2.763998 29.100157 2.286306
2005-03-15 08:05:46 51°21.39 2°56.452 -999 2.771574 29.18961 2.252597
2005-03-15 08:05:51 51°21.402 2°56.47 -999 2.771364 29.188752 2.286306
2005-03-15 08:05:56 51°21.415 2°56.49 -999 2.771364 29.188752 2.286306
2005-03-15 08:06:01 51°21.43 2°56.512 -999 2.771785 29.193636 2.185178
2005-03-15 08:06:06 51°21.443 2°56.533 -999 2.771364 29.189545 2.286306
2005-03-15 08:06:11 51°21.456 2°56.553 -999 2.76705 29.135544 2.252597
2005-03-15 08:06:16 51°21.468 2°56.571 -999 2.768944 29.15593 2.286306
2005-03-15 08:06:20 51°21.48 2°56.589 -999 2.765998 29.118601 2.252597
2005-03-15 08:06:26 51°21.496 2°56.612 -999 2.765998 29.118601 2.252597
2005-03-15 08:06:31 51°21.51 2°56.632 -999 2.766313 29.119102 2.252597
2005-03-15 08:06:36 51°21.522 2°56.649 -999 2.767891 29.135032 2.320016
2005-03-15 08:06:40 51°21.533 2°56.666 -999 2.766524 29.115224 2.353725
2005-03-15 08:06:46 51°21.549 2°56.689 -999 2.767155 29.119384 2.387435
2005-03-15 08:06:50 51°21.561 2°56.707 -999 2.766313 29.108049 2.421144
2005-03-15 08:06:55 51°21.575 2°56.727 -999 2.766313 29.108049 2.421144
2005-03-15 08:07:01 51°21.589 2°56.749 -999 2.766629 29.110918 2.421144
2005-03-15 08:07:06 51°21.603 2°56.769 -999 2.766313 29.104104 2.421144
2005-03-15 08:07:10 51°21.615 2°56.787 -999 2.765366 29.092341 2.522272
2005-03-15 08:07:16 51°21.629 2°56.809 -999 2.764735 29.082661 2.454853
2005-03-15 08:07:21 51°21.643 2°56.829 -999 2.764209 29.075777 2.454853
2005-03-15 08:07:26 51°21.658 2°56.85 -999 2.764209 29.075777 2.454853
2005-03-15 08:07:31 51°21.67 2°56.869 -999 2.765156 29.085172 2.488563
2005-03-15 08:07:36 51°21.683 2°56.888 -999 2.764735 29.077932 2.522272
2005-03-15 08:07:42 51°21.699 2°56.912 -999 2.764945 29.078006 2.454853
2005-03-15 08:07:46 51°21.711 2°56.931 -999 2.761788 29.040657 2.522272
2005-03-15 08:07:50 51°21.722 2°56.947 -999 2.763577 29.059799 2.454853
2005-03-15 08:07:56 51°21.737 2°56.969 -999 2.763577 29.059799 2.454853
2005-03-15 08:08:01 51°21.75 2°56.989 -999 2.763577 29.059799 2.421144
2005-03-15 08:08:06 51°21.763 2°57.01 -999 2.764103 29.06353 2.454853
2005-03-15 08:08:11 51°21.777 2°57.03 -999 2.762315 29.041241 2.421144
2005-03-15 08:08:16 51°21.79 2°57.05 -999 2.762946 29.045404 2.421144
2005-03-15 08:08:20 51°21.801 2°57.066 -999 2.762735 29.040608 2.387435
2005-03-15 08:08:26 51°21.819 2°57.092 -999 2.762735 29.040608 2.387435
2005-03-15 08:08:30 51°21.83 2°57.108 -999 2.760947 29.018327 2.353725
2005-03-15 08:08:36 51°21.845 2°57.131 -999 2.763787 29.048069 2.387435
2005-03-15 08:08:41 51°21.858 2°57.151 -999 2.763998 29.049719 2.421144
2005-03-15 08:08:46 51°21.873 2°57.172 -999 2.762735 29.035103 2.353725
2005-03-15 08:08:51 51°21.885 2°57.191 -999 2.761683 29.022923 2.353725
2005-03-15 08:08:56 51°21.899 2°57.211 -999 2.761683 29.022923 2.353725
2005-03-15 08:09:01 51°21.912 2°57.231 -999 2.757474 28.973428 2.421144
2005-03-15 08:09:06 51°21.925 2°57.252 -999 2.763156 29.038402 2.353725
2005-03-15 08:09:11 51°21.939 2°57.273 -999 2.761894 29.024573 2.353725
2005-03-15 08:09:16 51°21.953 2°57.293 -999 2.76242 29.02909 2.320016
2005-03-15 08:09:21 51°21.966 2°57.313 -999 2.76263 29.031526 2.353725
2005-03-15 08:09:26 51°21.981 2°57.335 -999 2.76263 29.031526 2.353725
2005-03-15 08:09:30 51°21.992 2°57.351 -999 2.76284 29.035534 2.353725
2005-03-15 08:09:36 51°22.007 2°57.374 -999 2.762946 29.033607 2.353725
2005-03-15 08:09:41 51°22.02 2°57.394 -999 2.762209 29.024297 2.286306
2005-03-15 08:09:46 51°22.035 2°57.417 -999 2.762946 29.033607 2.252597
2005-03-15 08:09:50 51°22.045 2°57.433 -999 2.762525 29.028736 2.320016
2005-03-15 08:09:56 51°22.06 2°57.456 -999 2.762525 29.028736 2.320016
2005-03-15 08:10:00 51°22.071 2°57.472 -999 2.76284 29.030817 2.320016
2005-03-15 08:10:06 51°22.088 2°57.499 -999 2.76284 29.029246 2.286306
2005-03-15 08:10:11 51°22.101 2°57.517 -999 2.761999 29.018719 2.252597
2005-03-15 08:10:16 51°22.115 2°57.537 -999 2.76242 29.023589 2.252597
2005-03-15 08:10:21 51°22.13 2°57.559 -999 2.761893 29.018287 2.252597
2005-03-15 08:10:26 51°22.143 2°57.58 -999 2.761893 29.018287 2.252597
2005-03-15 08:10:31 51°22.157 2°57.6 -999 2.762209 29.022725 2.218888
2005-03-15 08:10:36 51°22.169 2°57.618 -999 2.762104 29.023079 2.286306
2005-03-15 08:10:41 51°22.184 2°57.64 -999 2.762209 29.024297 2.252597
2005-03-15 08:10:46 51°22.197 2°57.66 -999 2.758526 28.980896 2.286306
2005-03-15 08:10:51 51°22.211 2°57.68 -999 2.760631 29.005246 2.252597
2005-03-15 08:10:56 51°22.223 2°57.699 -999 2.760631 29.005246 2.252597
2005-03-15 08:11:00 51°22.234 2°57.715 -999 2.761157 29.009764 2.286306
2005-03-15 08:11:06 51°22.25 2°57.74 -999 2.756001 28.94776 2.252597
2005-03-15 08:11:11 51°22.265 2°57.762 -999 2.76242 29.020447 2.252597
2005-03-15 08:11:16 51°22.277 2°57.781 -999 2.762104 29.019936 2.218888
2005-03-15 08:11:20 51°22.288 2°57.797 -999 2.76263 29.025239 2.185178
2005-03-15 08:11:26 51°22.304 2°57.821 -999 2.76263 29.025239 2.185178
2005-03-15 08:11:31 51°22.318 2°57.843 -999 2.76263 29.023667 2.218888
2005-03-15 08:11:36 51°22.331 2°57.862 -999 2.76242 29.020447 2.218888
2005-03-15 08:11:41 51°22.346 2°57.884 -999 2.761578 29.011492 2.252597
2005-03-15 08:11:46 51°22.359 2°57.904 -999 2.762525 29.021664 2.252597
2005-03-15 08:11:51 51°22.371 2°57.923 -999 2.76263 29.023667 2.286306
2005-03-15 08:11:56 51°22.386 2°57.945 -999 2.76263 29.023667 2.286306
2005-03-15 08:12:01 51°22.399 2°57.965 -999 2.762209 29.015655 2.185178
2005-03-15 08:12:06 51°22.412 2°57.984 -999 2.762104 29.014438 2.252597
2005-03-15 08:12:11 51°22.426 2°58.006 -999 2.763051 29.024609 2.185178
2005-03-15 08:12:16 51°22.439 2°58.024 -999 2.763261 29.026258 2.185178
2005-03-15 08:12:20 51°22.449 2°58.041 -999 2.763156 29.026612 2.218888
2005-03-15 08:12:26 51°22.467 2°58.068 -999 2.763156 29.026612 2.218888
2005-03-15 08:12:30 51°22.478 2°58.085 -999 2.763156 29.024255 2.252597
2005-03-15 08:12:36 51°22.493 2°58.107 -999 2.762946 29.02182 2.151469
2005-03-15 08:12:40 51°22.503 2°58.124 -999 2.763366 29.024333 2.151469
2005-03-15 08:12:46 51°22.521 2°58.15 -999 2.763577 29.027553 2.117759
2005-03-15 08:12:51 51°22.533 2°58.169 -999 2.763787 29.029202 2.117759
2005-03-15 08:12:56 51°22.547 2°58.19 -999 2.763787 29.029202 2.117759
2005-03-15 08:13:01 51°22.562 2°58.214 -999 2.763682 29.027985 2.117759
2005-03-15 08:13:06 51°22.575 2°58.233 -999 2.763682 29.026414 2.151469
2005-03-15 08:13:10 51°22.584 2°58.248 -999 2.764103 29.030497 2.151469
2005-03-15 08:13:16 51°22.6 2°58.273 -999 2.764313 29.033717 2.08405
2005-03-15 08:13:20 51°22.611 2°58.291 -999 2.763892 29.028063 2.08405
2005-03-15 08:13:26 51°22.627 2°58.316 -999 2.763892 29.028063 2.08405
2005-03-15 08:13:32 51°22.643 2°58.34 -999 2.764524 29.035366 2.08405
2005-03-15 08:13:36 51°22.653 2°58.357 -999 2.764419 29.033363 2.050341
2005-03-15 08:13:40 51°22.664 2°58.373 -999 2.764734 29.0378 1.982922
2005-03-15 08:13:46 51°22.679 2°58.397 -999 2.763472 29.023979 2.08405
2005-03-15 08:13:51 51°22.694 2°58.419 -999 2.764524 29.037723 2.050341
2005-03-15 08:13:56 51°22.706 2°58.437 -999 2.764524 29.037723 2.050341
2005-03-15 08:14:01 51°22.72 2°58.457 -999 2.764734 29.039372 2.050341
2005-03-15 08:14:06 51°22.735 2°58.479 -999 2.764419 29.037292 2.050341
2005-03-15 08:14:10 51°22.746 2°58.496 -999 2.763998 29.031637 2.08405
2005-03-15 08:14:15 51°22.759 2°58.516 -999 2.764524 29.038509 2.08405
2005-03-15 08:14:20 51°22.772 2°58.534 -999 2.764313 29.03686 2.016631
2005-03-15 08:14:26 51°22.79 2°58.56 -999 2.764313 29.03686 2.016631
2005-03-15 08:14:31 51°22.803 2°58.58 -999 2.764629 29.039726 1.982922
2005-03-15 08:14:36 51°22.815 2°58.599 -999 2.764629 29.039726 1.982922
2005-03-15 08:14:40 51°22.828 2°58.618 -999 2.764734 29.04173 1.949212
2005-03-15 08:14:46 51°22.845 2°58.643 -999 2.764839 29.044519 1.982922
2005-03-15 08:14:51 51°22.859 2°58.663 -999 2.764839 29.042161 1.949212
2005-03-15 08:14:56 51°22.871 2°58.682 -999 2.764839 29.042161 1.949212
2005-03-15 08:15:00 51°22.882 2°58.698 -999 2.760736 28.993904 1.949212
2005-03-15 08:15:06 51°22.9 2°58.724 -999 2.76505 29.042238 1.949212
2005-03-15 08:15:11 51°22.913 2°58.742 -999 2.765155 29.042669 1.982922
2005-03-15 08:15:16 51°22.926 2°58.763 -999 2.764103 29.030497 1.915503
2005-03-15 08:15:20 51°22.937 2°58.779 -999 2.765366 29.046676 1.881794
2005-03-15 08:15:26 51°22.955 2°58.806 -999 2.765366 29.046676 1.881794
2005-03-15 08:15:31 51°22.968 2°58.826 -999 2.76526 29.044672 1.915503
2005-03-15 08:15:36 51°22.98 2°58.844 -999 2.76526 29.044672 1.915503
2005-03-15 08:15:41 51°22.995 2°58.866 -999 2.76505 29.041452 1.915503
2005-03-15 08:15:46 51°23.007 2°58.885 -999 2.76526 29.043886 1.848084
2005-03-15 08:15:50 51°23.019 2°58.904 -999 2.76526 29.043101 1.848084
2005-03-15 08:15:55 51°23.033 2°58.924 -999 2.76526 29.043101 1.848084
2005-03-15 08:16:01 51°23.049 2°58.949 -999 2.765366 29.046676 1.881794
2005-03-15 08:16:06 51°23.061 2°58.968 -999 2.765155 29.043455 1.915503
2005-03-15 08:16:10 51°23.074 2°58.986 -999 2.765155 29.041883 1.949212
2005-03-15 08:16:16 51°23.091 2°59.011 -999 2.765155 29.042669 1.881794
2005-03-15 08:16:21 51°23.104 2°59.031 -999 2.76526 29.043886 1.848084
2005-03-15 08:16:26 51°23.117 2°59.049 -999 2.76526 29.043886 1.848084
2005-03-15 08:16:31 51°23.132 2°59.071 -999 2.765576 29.048324 1.814375
2005-03-15 08:16:36 51°23.144 2°59.089 -999 2.765155 29.043455 1.848084
2005-03-15 08:16:41 51°23.158 2°59.11 -999 2.765155 29.044241 1.881794
2005-03-15 08:16:46 51°23.171 2°59.13 -999 2.765471 29.046321 1.848084
2005-03-15 08:16:51 51°23.184 2°59.151 -999 2.765366 29.04589 1.814375
2005-03-15 08:16:56 51°23.198 2°59.173 -999 2.765366 29.04589 1.814375
2005-03-15 08:17:01 51°23.212 2°59.196 -999 2.765366 29.046676 1.848084
2005-03-15 08:17:06 51°23.225 2°59.217 -999 2.76526 29.047031 1.915503
2005-03-15 08:17:11 51°23.239 2°59.238 -999 2.765471 29.046321 1.848084
2005-03-15 08:17:16 51°23.25 2°59.258 -999 2.765471 29.045535 1.814375
2005-03-15 08:17:21 51°23.263 2°59.279 -999 2.765681 29.047969 1.814375
2005-03-15 08:17:26 51°23.277 2°59.303 -999 2.765681 29.047969 1.814375
2005-03-15 08:17:30 51°23.288 2°59.32 -999 2.765892 29.05119 1.881794
2005-03-15 08:17:36 51°23.302 2°59.344 -999 2.765786 29.052331 1.814375
2005-03-15 08:17:41 51°23.315 2°59.365 -999 2.765786 29.051545 1.780665
2005-03-15 08:17:46 51°23.329 2°59.388 -999 2.766312 29.055273 1.881794
2005-03-15 08:17:50 51°23.339 2°59.405 -999 2.766312 29.053701 1.814375
2005-03-15 08:17:56 51°23.353 2°59.429 -999 2.766312 29.053701 1.814375
2005-03-15 08:17:59 51°23.362 2°59.444 -999 2.766628 29.057353 1.814375
2005-03-15 08:18:06 51°23.379 2°59.472 -999 2.766628 29.059711 1.814375
2005-03-15 08:18:10 51°23.391 2°59.491 -999 2.766523 29.060067 1.780665
2005-03-15 08:18:16 51°23.406 2°59.515 -999 2.766523 29.060067 1.848084
2005-03-15 08:18:21 51°23.42 2°59.539 -999 2.766733 29.063288 1.780665
2005-03-15 08:18:26 51°23.432 2°59.558 -999 2.766733 29.063288 1.780665
2005-03-15 08:18:30 51°23.444 2°59.578 -999 2.766839 29.066079 1.814375
2005-03-15 08:18:36 51°23.458 2°59.601 -999 2.766839 29.065292 1.814375
2005-03-15 08:18:41 51°23.473 2°59.625 -999 2.766839 29.066865 1.780665
2005-03-15 08:18:46 51°23.485 2°59.643 -999 2.766839 29.066079 1.780665
2005-03-15 08:18:52 51°23.502 2°59.669 -999 2.767049 29.067727 1.848084
2005-03-15 08:18:56 51°23.512 2°59.687 -999 2.767049 29.067727 1.848084
2005-03-15 08:19:01 51°23.527 2°59.71 -999 2.766944 29.068083 1.814375
2005-03-15 08:19:06 51°23.54 2°59.732 -999 2.767154 29.072879 1.746956
2005-03-15 08:19:11 51°23.553 2°59.754 -999 2.767365 29.076101 1.780665
2005-03-15 08:19:16 51°23.565 2°59.773 -999 2.76747 29.076532 1.780665
2005-03-15 08:19:20 51°23.577 2°59.792 -999 2.767365 29.076101 1.814375
2005-03-15 08:19:26 51°23.592 2°59.818 -999 2.767365 29.076101 1.814375
2005-03-15 08:19:31 51°23.605 2°59.839 -999 2.767786 29.080185 1.814375
2005-03-15 08:19:36 51°23.617 2°59.859 -999 2.76768 29.081329 1.780665
2005-03-15 08:19:41 51°23.63 2°59.88 -999 2.767996 29.084982 1.814375
2005-03-15 08:19:46 51°23.643 2°59.902 -999 2.767996 29.08577 1.746956
2005-03-15 08:19:51 51°23.658 2°59.925 -999 2.768207 29.088993 1.814375
2005-03-15 08:19:56 51°23.67 2°59.944 -999 2.768207 29.088993 1.814375
2005-03-15 08:20:00 51°23.682 2°59.964 -999 2.768312 29.090998 1.746956
2005-03-15 08:20:06 51°23.696 2°59.987 -999 2.768522 29.093434 1.713247
2005-03-15 08:20:10 51°23.708 3°0.006 -999 2.768627 29.097015 1.746956
2005-03-15 08:20:16 51°23.722 3°0.029 -999 2.768943 29.102245 1.814375
2005-03-15 08:20:20 51°23.733 3°0.046 -999 2.769364 29.10633 1.713247
2005-03-15 08:20:26 51°23.75 3°0.074 -999 2.769364 29.10633 1.713247
2005-03-15 08:20:30 51°23.76 3°0.091 -999 2.76968 29.113926 1.814375
2005-03-15 08:20:36 51°23.774 3°0.114 -999 2.769995 29.117581 1.814375
2005-03-15 08:20:40 51°23.785 3°0.131 -999 2.770101 29.122742 1.780665
2005-03-15 08:20:46 51°23.802 3°0.16 -999 2.770416 29.127976 1.848084
2005-03-15 08:20:50 51°23.812 3°0.177 -999 2.770627 29.13278 1.814375
2005-03-15 08:20:55 51°23.825 3°0.198 -999 2.770627 29.13278 1.814375
2005-03-15 08:21:01 51°23.841 3°0.224 -999 2.770732 29.135577 1.814375
2005-03-15 08:21:06 51°23.854 3°0.245 -999 2.771153 29.140452 1.848084
2005-03-15 08:21:11 51°23.867 3°0.267 -999 2.771469 29.145688 1.915503
2005-03-15 08:21:16 51°23.878 3°0.286 -999 2.771679 29.150495 1.881794
2005-03-15 08:21:21 51°23.892 3°0.31 -999 2.771469 29.148847 1.949212
2005-03-15 08:21:26 51°23.905 3°0.331 -999 2.771469 29.148847 1.949212
2005-03-15 08:21:30 51°23.916 3°0.348 -999 2.771469 29.148847 1.848084
2005-03-15 08:21:35 51°23.928 3°0.37 -999 2.771784 29.153294 2.016631
2005-03-15 08:21:41 51°23.942 3°0.394 -999 2.771784 29.150924 1.814375
2005-03-15 08:21:47 51°23.958 3°0.419 -999 2.771995 29.153362 1.881794
2005-03-15 08:21:50 51°23.966 3°0.434 -999 2.7721 29.154581 1.848084
2005-03-15 08:21:56 51°23.98 3°0.458 -999 2.7721 29.154581 1.848084
2005-03-15 08:22:01 51°23.994 3°0.479 -999 2.772416 29.158238 1.949212
2005-03-15 08:22:06 51°24.008 3°0.502 -999 2.772521 29.158667 1.915503
2005-03-15 08:22:10 51°24.017 3°0.517 -999 2.772836 29.160744 1.848084
2005-03-15 08:22:16 51°24.032 3°0.543 -999 2.772942 29.163543 1.848084
2005-03-15 08:22:21 51°24.046 3°0.567 -999 2.772836 29.162324 1.848084
2005-03-15 08:22:26 51°24.058 3°0.586 -999 2.772836 29.162324 1.848084
2005-03-15 08:22:30 51°24.069 3°0.605 -999 2.772942 29.162753 1.814375
2005-03-15 08:22:36 51°24.084 3°0.628 -999 2.773047 29.163972 1.814375
2005-03-15 08:22:41 51°24.096 3°0.65 -999 2.773257 29.16562 1.814375
2005-03-15 08:22:46 51°24.109 3°0.671 -999 2.773257 29.16483 1.746956
2005-03-15 08:22:51 51°24.123 3°0.694 -999 2.773468 29.167268 1.746956
2005-03-15 08:22:56 51°24.135 3°0.713 -999 2.773468 29.167268 1.746956
2005-03-15 08:23:01 51°24.148 3°0.734 -999 2.773783 29.171715 1.780665
2005-03-15 08:23:06 51°24.162 3°0.757 -999 2.773889 29.172144 1.780665
2005-03-15 08:23:10 51°24.172 3°0.774 -999 2.773994 29.172573 1.780665
2005-03-15 08:23:15 51°24.185 3°0.795 -999 2.77431 29.17623 1.780665
2005-03-15 08:23:21 51°24.2 3°0.821 -999 2.774836 29.184697 1.746956
2005-03-15 08:23:26 51°24.212 3°0.842 -999 2.774836 29.184697 1.746956
2005-03-15 08:23:30 51°24.222 3°0.859 -999 2.774836 29.184697 1.746956
2005-03-15 08:23:36 51°24.235 3°0.883 -999 2.775151 29.189145 1.679537
2005-03-15 08:23:41 51°24.249 3°0.906 -999 2.775572 29.19244 1.679537
2005-03-15 08:23:46 51°24.261 3°0.928 -999 2.776519 29.204995 1.679537
2005-03-15 08:23:51 51°24.273 3°0.948 -999 2.777571 29.216396 1.746956
2005-03-15 08:23:56 51°24.285 3°0.969 -999 2.777571 29.216396 1.746956
2005-03-15 08:23:59 51°24.293 3°0.984 -999 2.77915 29.233894 1.746956
2005-03-15 08:24:06 51°24.311 3°1.015 -999 2.780307 29.248893 1.814375
2005-03-15 08:24:11 51°24.323 3°1.037 -999 2.781675 29.267125 1.780665
2005-03-15 08:24:16 51°24.334 3°1.056 -999 2.782517 29.277676 1.780665
2005-03-15 08:24:21 51°24.346 3°1.078 -999 2.783359 29.287435 1.881794
2005-03-15 08:24:26 51°24.359 3°1.101 -999 2.783359 29.287435 1.881794
2005-03-15 08:24:30 51°24.369 3°1.119 -999 2.783464 29.287861 1.881794
2005-03-15 08:24:36 51°24.382 3°1.143 -999 2.7842 29.2964 2.08405
2005-03-15 08:24:40 51°24.392 3°1.16 -999 2.784306 29.299207 1.949212
2005-03-15 08:24:46 51°24.407 3°1.185 -999 2.784306 29.299207 1.915503
2005-03-15 08:24:50 51°24.417 3°1.205 -999 2.784516 29.300853 1.915503
2005-03-15 08:24:56 51°24.431 3°1.228 -999 2.784516 29.300853 1.915503
2005-03-15 08:25:01 51°24.444 3°1.252 -999 2.784621 29.303661 1.915503
2005-03-15 08:25:06 51°24.455 3°1.271 -999 2.784727 29.304881 1.915503
2005-03-15 08:25:10 51°24.465 3°1.287 -999 2.784727 29.306469 1.949212
2005-03-15 08:25:16 51°24.48 3°1.313 -999 2.785147 29.310555 1.915503
2005-03-15 08:25:20 51°24.49 3°1.33 -999 2.785358 29.31379 1.915503
2005-03-15 08:25:26 51°24.506 3°1.357 -999 2.785358 29.31379 1.915503
2005-03-15 08:25:30 51°24.515 3°1.375 -999 2.785568 29.317024 1.915503
2005-03-15 08:25:35 51°24.528 3°1.396 -999 2.786095 29.323125 1.949212
2005-03-15 08:25:41 51°24.541 3°1.42 -999 2.786515 29.328801 1.982922
2005-03-15 08:25:46 51°24.554 3°1.441 -999 2.786515 29.329596 1.915503
2005-03-15 08:25:51 51°24.567 3°1.463 -999 2.786515 29.328006 1.949212
2005-03-15 08:25:56 51°24.579 3°1.484 -999 2.786515 29.328006 1.949212
2005-03-15 08:26:00 51°24.591 3°1.504 -999 2.786726 29.330446 1.949212
2005-03-15 08:26:06 51°24.605 3°1.527 -999 2.786831 29.330872 1.915503
2005-03-15 08:26:10 51°24.616 3°1.546 -999 2.786831 29.330077 1.982922
2005-03-15 08:26:16 51°24.63 3°1.569 -999 2.78641 29.323607 1.982922
2005-03-15 08:26:22 51°24.645 3°1.595 -999 2.786094 29.319153 1.982922
2005-03-15 08:26:26 51°24.657 3°1.615 -999 2.786094 29.319153 1.982922
2005-03-15 08:26:31 51°24.668 3°1.634 -999 2.785674 29.313478 2.050341
2005-03-15 08:26:36 51°24.682 3°1.658 -999 2.785779 29.31311 2.016631
2005-03-15 08:26:40 51°24.691 3°1.673 -999 2.785674 29.310302 2.016631
2005-03-15 08:26:46 51°24.707 3°1.701 -999 2.785042 29.303777 1.982922
2005-03-15 08:26:51 51°24.72 3°1.722 -999 2.784621 29.298898 1.982922
2005-03-15 08:26:55 51°24.73 3°1.739 -999 2.784621 29.298898 1.982922
2005-03-15 08:27:00 51°24.742 3°1.758 -999 2.784516 29.297678 2.050341
2005-03-15 08:27:06 51°24.757 3°1.784 -999 2.784095 29.294386 2.050341
2005-03-15 08:27:11 51°24.771 3°1.808 -999 2.783885 29.291947 2.117759
2005-03-15 08:27:16 51°24.782 3°1.827 -999 2.783569 29.287494 2.050341
2005-03-15 08:27:21 51°24.797 3°1.85 -999 2.783464 29.287068 2.117759
2005-03-15 08:27:26 51°24.808 3°1.869 -999 2.783464 29.287068 2.117759
2005-03-15 08:27:31 51°24.822 3°1.892 -999 2.783253 29.285421 2.08405
2005-03-15 08:27:35 51°24.832 3°1.91 -999 2.783569 29.2867 2.016631
2005-03-15 08:27:40 51°24.846 3°1.931 -999 2.783253 29.283041 2.016631
2005-03-15 08:27:46 51°24.859 3°1.954 -999 2.783464 29.285481 2.08405
2005-03-15 08:27:50 51°24.869 3°1.971 -999 2.783674 29.287127 1.982922
2005-03-15 08:27:56 51°24.885 3°1.999 -999 2.783674 29.287127 1.982922
2005-03-15 08:28:02 51°24.899 3°2.022 -999 2.78399 29.292373 1.982922
2005-03-15 08:28:06 51°24.911 3°2.041 -999 2.784516 29.296091 1.949212
2005-03-15 08:28:10 51°24.92 3°2.055 -999 2.784937 29.301763 2.016631
2005-03-15 08:28:17 51°24.937 3°2.085 -999 2.785463 29.308656 2.050341
2005-03-15 08:28:20 51°24.944 3°2.098 -999 2.785884 29.317507 2.050341
2005-03-15 08:28:26 51°24.961 3°2.125 -999 2.785884 29.317507 2.050341
2005-03-15 08:28:31 51°24.973 3°2.147 -999 2.785884 29.321479 2.08405
2005-03-15 08:28:36 51°24.984 3°2.165 -999 2.785989 29.323494 2.016631
2005-03-15 08:28:41 51°24.997 3°2.187 -999 2.786305 29.328745 2.016631
2005-03-15 08:28:46 51°25.011 3°2.209 -999 2.786831 29.333256 1.982922
2005-03-15 08:28:50 51°25.021 3°2.226 -999 2.786621 29.332406 1.915503
2005-03-15 08:28:56 51°25.035 3°2.249 -999 2.786621 29.332406 1.915503
2005-03-15 08:29:01 51°25.049 3°2.272 -999 2.786936 29.338452 1.915503
2005-03-15 08:29:06 51°25.061 3°2.294 -999 2.787357 29.343334 1.915503
2005-03-15 08:29:10 51°25.072 3°2.31 -999 2.787673 29.349382 1.915503
2005-03-15 08:29:16 51°25.085 3°2.334 -999 2.788094 29.358244 1.982922
2005-03-15 08:29:20 51°25.095 3°2.351 -999 2.788199 29.361852 1.915503
2005-03-15 08:29:26 51°25.111 3°2.379 -999 2.788199 29.361852 1.915503
2005-03-15 08:29:31 51°25.123 3°2.4 -999 2.78841 29.364294 1.915503
2005-03-15 08:29:36 51°25.134 3°2.42 -999 2.78862 29.364348 1.881794
2005-03-15 08:29:41 51°25.147 3°2.443 -999 2.788936 29.368806 1.848084
2005-03-15 08:29:46 51°25.158 3°2.463 -999 2.789357 29.372894 1.881794
2005-03-15 08:29:51 51°25.171 3°2.484 -999 2.789567 29.375335 1.915503
2005-03-15 08:29:56 51°25.182 3°2.506 -999 2.789567 29.375335 1.915503
2005-03-15 08:30:01 51°25.196 3°2.53 -999 2.789777 29.37937 1.848084
2005-03-15 08:30:06 51°25.208 3°2.55 -999 2.789988 29.381812 1.881794
2005-03-15 08:30:11 51°25.22 3°2.573 -999 2.790093 29.379847 1.881794
2005-03-15 08:30:16 51°25.231 3°2.592 -999 2.790093 29.378254 1.881794
2005-03-15 08:30:21 51°25.244 3°2.616 -999 2.790514 29.380748 1.780665
2005-03-15 08:30:26 51°25.255 3°2.636 -999 2.790514 29.380748 1.780665
2005-03-15 08:30:31 51°25.268 3°2.658 -999 2.790514 29.382341 1.814375
2005-03-15 08:30:36 51°25.28 3°2.679 -999 2.790514 29.382341 1.848084
2005-03-15 08:30:40 51°25.291 3°2.699 -999 2.790619 29.385155 1.814375
2005-03-15 08:30:46 51°25.305 3°2.725 -999 2.790514 29.383934 1.746956
2005-03-15 08:30:50 51°25.315 3°2.742 -999 2.790514 29.383934 1.780665
2005-03-15 08:30:56 51°25.328 3°2.766 -999 2.790514 29.383934 1.780665
2005-03-15 08:31:01 51°25.341 3°2.791 -999 2.79083 29.388393 1.780665
2005-03-15 08:31:06 51°25.353 3°2.814 -999 2.79104 29.390835 1.848084
2005-03-15 08:31:11 51°25.364 3°2.836 -999 2.791461 29.394922 1.814375
2005-03-15 08:31:16 51°25.373 3°2.856 -999 2.791566 29.393752 1.814375
2005-03-15 08:31:21 51°25.385 3°2.879 -999 2.785674 29.324602 1.881794
2005-03-15 08:31:26 51°25.395 3°2.902 -999 2.785674 29.324602 1.881794
2005-03-15 08:31:30 51°25.405 3°2.923 -999 2.791566 29.390565 1.780665
2005-03-15 08:31:35 51°25.416 3°2.946 -999 2.791671 29.386211 1.780665
2005-03-15 08:31:41 51°25.429 3°2.973 -999 2.791671 29.38223 1.746956
2005-03-15 08:31:46 51°25.44 3°2.997 -999 2.791882 29.382282 1.780665
2005-03-15 08:31:51 51°25.451 3°3.02 -999 2.791987 29.380319 1.746956
2005-03-15 08:31:56 51°25.461 3°3.041 -999 2.791987 29.380319 1.746956
2005-03-15 08:32:02 51°25.473 3°3.069 -999 2.791987 29.377136 1.780665
2005-03-15 08:32:06 51°25.482 3°3.09 -999 2.792408 29.379628 1.679537
2005-03-15 08:32:10 51°25.491 3°3.108 -999 2.792303 29.376817 1.746956
2005-03-15 08:32:16 51°25.503 3°3.137 -999 2.792303 29.375226 1.713247
2005-03-15 08:32:21 51°25.513 3°3.158 -999 2.792303 29.37284 1.746956
2005-03-15 08:32:26 51°25.525 3°3.183 -999 2.792303 29.37284 1.746956
2005-03-15 08:32:31 51°25.534 3°3.204 -999 2.792723 29.375332 1.645828
2005-03-15 08:32:36 51°25.545 3°3.227 -999 2.792723 29.373742 1.679537
2005-03-15 08:32:41 51°25.557 3°3.252 -999 2.792723 29.372151 1.679537
2005-03-15 08:32:46 51°25.569 3°3.276 -999 2.792829 29.369395 1.713247
2005-03-15 08:32:51 51°25.579 3°3.299 -999 2.792618 29.366162 1.679537
2005-03-15 08:32:56 51°25.589 3°3.32 -999 2.792618 29.366162 1.679537
2005-03-15 08:33:02 51°25.601 3°3.348 -999 2.792618 29.366162 1.645828
2005-03-15 08:33:06 51°25.611 3°3.369 -999 2.792408 29.362929 1.645828
2005-03-15 08:33:11 51°25.62 3°3.39 -999 2.792513 29.362559 1.713247
2005-03-15 08:33:16 51°25.631 3°3.414 -999 2.792618 29.361394 1.679537
2005-03-15 08:33:21 51°25.642 3°3.44 -999 2.792618 29.361394 1.679537
2005-03-15 08:33:26 51°25.653 3°3.463 -999 2.792618 29.361394 1.679537
2005-03-15 08:33:31 51°25.663 3°3.486 -999 2.792618 29.361394 1.645828
2005-03-15 08:33:36 51°25.673 3°3.507 -999 2.792828 29.364626 1.645828
2005-03-15 08:33:41 51°25.684 3°3.533 -999 2.792723 29.364202 1.645828
2005-03-15 08:33:46 51°25.694 3°3.555 -999 2.792829 29.367011 1.679537
2005-03-15 08:33:51 51°25.706 3°3.58 -999 2.793355 29.371517 1.746956
2005-03-15 08:33:56 51°25.716 3°3.601 -999 2.793355 29.371517 1.746956
2005-03-15 08:33:59 51°25.723 3°3.618 -999 2.793355 29.373902 1.713247
2005-03-15 08:34:06 51°25.739 3°3.65 -999 2.793249 29.375863 1.780665
2005-03-15 08:34:11 51°25.75 3°3.672 -999 2.793249 29.376658 1.814375
2005-03-15 08:34:16 51°25.759 3°3.693 -999 2.793355 29.377082 1.814375
2005-03-15 08:34:20 51°25.768 3°3.711 -999 2.79346 29.378302 1.814375
2005-03-15 08:34:26 51°25.782 3°3.741 -999 2.79346 29.378302 1.814375
2005-03-15 08:34:30 51°25.792 3°3.76 -999 2.79367 29.379945 1.848084
2005-03-15 08:34:36 51°25.804 3°3.785 -999 2.793355 29.374697 1.814375
2005-03-15 08:34:40 51°25.813 3°3.804 -999 2.793355 29.373107 1.780665
2005-03-15 08:34:46 51°25.826 3°3.832 -999 2.793565 29.373955 1.780665
2005-03-15 08:34:50 51°25.836 3°3.853 -999 2.793249 29.370298 1.780665
2005-03-15 08:34:55 51°25.847 3°3.876 -999 2.793249 29.370298 1.780665
2005-03-15 08:35:01 51°25.86 3°3.903 -999 2.79346 29.370351 1.780665
2005-03-15 08:35:06 51°25.871 3°3.927 -999 2.79367 29.3712 1.780665
2005-03-15 08:35:11 51°25.881 3°3.95 -999 2.793881 29.372048 1.814375
2005-03-15 08:35:16 51°25.891 3°3.971 -999 2.793881 29.372048 1.848084
2005-03-15 08:35:21 51°25.904 3°3.997 -999 2.794196 29.374115 1.814375
2005-03-15 08:35:26 51°25.915 3°4.02 -999 2.794196 29.374115 1.814375
2005-03-15 08:35:30 51°25.924 3°4.038 -999 2.794302 29.374539 1.780665
2005-03-15 08:35:36 51°25.936 3°4.064 -999 2.794722 29.37862 1.848084
2005-03-15 08:35:41 51°25.947 3°4.087 -999 2.794617 29.378196 1.848084
2005-03-15 08:35:46 51°25.959 3°4.112 -999 2.794722 29.377031 1.848084
2005-03-15 08:35:50 51°25.968 3°4.131 -999 2.794933 29.379468 1.848084
2005-03-15 08:35:56 51°25.981 3°4.157 -999 2.794933 29.379468 1.848084
2005-03-15 08:36:00 51°25.99 3°4.176 -999 2.794933 29.376289 1.848084
2005-03-15 08:36:06 51°26.004 3°4.208 -999 2.794933 29.3747 1.881794
2005-03-15 08:36:10 51°26.014 3°4.226 -999 2.794828 29.374276 1.881794
2005-03-15 08:36:16 51°26.026 3°4.252 -999 2.794933 29.375495 1.814375
2005-03-15 08:36:21 51°26.037 3°4.276 -999 2.795038 29.377508 1.881794
2005-03-15 08:36:26 51°26.049 3°4.302 -999 2.795038 29.377508 1.881794
2005-03-15 08:36:31 51°26.06 3°4.326 -999 2.794933 29.376289 1.881794
2005-03-15 08:36:36 51°26.071 3°4.351 -999 2.795354 29.380369 1.949212
2005-03-15 08:36:41 51°26.081 3°4.374 -999 2.795985 29.387681 1.982922
2005-03-15 08:36:46 51°26.091 3°4.398 -999 2.795985 29.387681 2.016631
2005-03-15 08:36:50 51°26.1 3°4.418 -999 2.796196 29.388529 2.016631
2005-03-15 08:36:56 51°26.111 3°4.445 -999 2.796196 29.388529 2.016631
2005-03-15 08:37:02 51°26.124 3°4.475 -999 2.796406 29.390966 2.016631
2005-03-15 08:37:06 51°26.133 3°4.498 -999 2.796406 29.390966 2.016631
2005-03-15 08:37:10 51°26.142 3°4.517 -999 2.796616 29.394994 2.016631
2005-03-15 08:37:15 51°26.152 3°4.542 -999 2.796932 29.399445 2.08405
2005-03-15 08:37:21 51°26.164 3°4.572 -999 2.797248 29.402306 2.218888
2005-03-15 08:37:26 51°26.174 3°4.597 -999 2.797248 29.402306 2.218888
2005-03-15 08:37:31 51°26.185 3°4.622 -999 2.797248 29.403897 2.151469